<?xml version="1.0" encoding="UTF-8" standalone="no" ?>
<gpx xmlns="http://www.topografix.com/GPX/1/1" xmlns:xsi="http://www.w3.org/2001/XMLSchema-instance" xsi:schemaLocation="http://www.topografix.com/GPX/1/1 http://www.topografix.com/GPX/1/1/gpx.xsd" version="1.1" creator="VisuGPX - https://www.visugpx.com">
  <metadata>
    <name>2023-02-20-46-Vers</name>
    <desc><![CDATA[Randonnée de 11 km pour environ 250m de dénivelé positif: une longue cote régulière sur plusieurs km ]]></desc>
  </metadata>
  <trk>
    <name><![CDATA[2023-02-20 17:20:32]]></name>
    <trkseg>
      <trkpt lat="44.48561" lon="1.55531">
        <ele>126.07</ele>
        <time>2023-02-20T12:58:38Z</time>
      </trkpt>
      <trkpt lat="44.48556" lon="1.5552">
        <ele>127.51</ele>
        <time>2023-02-20T13:00:50Z</time>
      </trkpt>
      <trkpt lat="44.48551" lon="1.55507">
        <ele>127.51</ele>
        <time>2023-02-20T13:01:06Z</time>
      </trkpt>
      <trkpt lat="44.48546" lon="1.55492">
        <ele>127.51</ele>
        <time>2023-02-20T13:01:16Z</time>
      </trkpt>
      <trkpt lat="44.48545" lon="1.55477">
        <ele>127.51</ele>
        <time>2023-02-20T13:01:26Z</time>
      </trkpt>
      <trkpt lat="44.48548" lon="1.55454">
        <ele>126.55</ele>
        <time>2023-02-20T13:02:20Z</time>
      </trkpt>
      <trkpt lat="44.48542" lon="1.55444">
        <ele>124.15</ele>
        <time>2023-02-20T13:02:34Z</time>
      </trkpt>
      <trkpt lat="44.4854" lon="1.55431">
        <ele>123.67</ele>
        <time>2023-02-20T13:02:43Z</time>
      </trkpt>
      <trkpt lat="44.48535" lon="1.55418">
        <ele>123.19</ele>
        <time>2023-02-20T13:02:53Z</time>
      </trkpt>
      <trkpt lat="44.48532" lon="1.55403">
        <ele>123.19</ele>
        <time>2023-02-20T13:03:03Z</time>
      </trkpt>
      <trkpt lat="44.48521" lon="1.554">
        <ele>123.19</ele>
        <time>2023-02-20T13:03:13Z</time>
      </trkpt>
      <trkpt lat="44.48512" lon="1.55392">
        <ele>121.74</ele>
        <time>2023-02-20T13:03:23Z</time>
      </trkpt>
      <trkpt lat="44.48506" lon="1.55379">
        <ele>121.74</ele>
        <time>2023-02-20T13:03:32Z</time>
      </trkpt>
      <trkpt lat="44.48499" lon="1.55367">
        <ele>121.26</ele>
        <time>2023-02-20T13:03:42Z</time>
      </trkpt>
      <trkpt lat="44.48491" lon="1.55355">
        <ele>121.26</ele>
        <time>2023-02-20T13:03:52Z</time>
      </trkpt>
      <trkpt lat="44.48481" lon="1.55346">
        <ele>121.26</ele>
        <time>2023-02-20T13:04:01Z</time>
      </trkpt>
      <trkpt lat="44.4847" lon="1.55338">
        <ele>120.78</ele>
        <time>2023-02-20T13:04:09Z</time>
      </trkpt>
      <trkpt lat="44.48461" lon="1.55335">
        <ele>120.78</ele>
        <time>2023-02-20T13:04:17Z</time>
      </trkpt>
      <trkpt lat="44.48451" lon="1.55323">
        <ele>121.74</ele>
        <time>2023-02-20T13:04:48Z</time>
      </trkpt>
      <trkpt lat="44.48444" lon="1.55316">
        <ele>120.78</ele>
        <time>2023-02-20T13:05:01Z</time>
      </trkpt>
      <trkpt lat="44.48435" lon="1.55328">
        <ele>120.78</ele>
        <time>2023-02-20T13:05:19Z</time>
      </trkpt>
      <trkpt lat="44.48423" lon="1.55324">
        <ele>120.78</ele>
        <time>2023-02-20T13:05:30Z</time>
      </trkpt>
      <trkpt lat="44.48411" lon="1.55317">
        <ele>120.78</ele>
        <time>2023-02-20T13:05:40Z</time>
      </trkpt>
      <trkpt lat="44.484" lon="1.55307">
        <ele>120.78</ele>
        <time>2023-02-20T13:05:50Z</time>
      </trkpt>
      <trkpt lat="44.48391" lon="1.55297">
        <ele>120.78</ele>
        <time>2023-02-20T13:05:58Z</time>
      </trkpt>
      <trkpt lat="44.48381" lon="1.55287">
        <ele>120.3</ele>
        <time>2023-02-20T13:06:07Z</time>
      </trkpt>
      <trkpt lat="44.48372" lon="1.55278">
        <ele>120.3</ele>
        <time>2023-02-20T13:06:14Z</time>
      </trkpt>
      <trkpt lat="44.48362" lon="1.55269">
        <ele>120.3</ele>
        <time>2023-02-20T13:06:22Z</time>
      </trkpt>
      <trkpt lat="44.48354" lon="1.5526">
        <ele>120.3</ele>
        <time>2023-02-20T13:06:29Z</time>
      </trkpt>
      <trkpt lat="44.48344" lon="1.55251">
        <ele>120.3</ele>
        <time>2023-02-20T13:06:37Z</time>
      </trkpt>
      <trkpt lat="44.48335" lon="1.55242">
        <ele>120.3</ele>
        <time>2023-02-20T13:06:45Z</time>
      </trkpt>
      <trkpt lat="44.48326" lon="1.55235">
        <ele>120.3</ele>
        <time>2023-02-20T13:06:53Z</time>
      </trkpt>
      <trkpt lat="44.48318" lon="1.55227">
        <ele>120.3</ele>
        <time>2023-02-20T13:07:02Z</time>
      </trkpt>
      <trkpt lat="44.4831" lon="1.55215">
        <ele>121.74</ele>
        <time>2023-02-20T13:07:12Z</time>
      </trkpt>
      <trkpt lat="44.48301" lon="1.55201">
        <ele>121.74</ele>
        <time>2023-02-20T13:07:22Z</time>
      </trkpt>
      <trkpt lat="44.48294" lon="1.55189">
        <ele>121.74</ele>
        <time>2023-02-20T13:07:31Z</time>
      </trkpt>
      <trkpt lat="44.48286" lon="1.55181">
        <ele>122.22</ele>
        <time>2023-02-20T13:07:39Z</time>
      </trkpt>
      <trkpt lat="44.48277" lon="1.55174">
        <ele>122.22</ele>
        <time>2023-02-20T13:07:47Z</time>
      </trkpt>
      <trkpt lat="44.48269" lon="1.55166">
        <ele>122.22</ele>
        <time>2023-02-20T13:07:56Z</time>
      </trkpt>
      <trkpt lat="44.48261" lon="1.5516">
        <ele>122.22</ele>
        <time>2023-02-20T13:08:05Z</time>
      </trkpt>
      <trkpt lat="44.48253" lon="1.55154">
        <ele>122.22</ele>
        <time>2023-02-20T13:08:13Z</time>
      </trkpt>
      <trkpt lat="44.48244" lon="1.55149">
        <ele>122.22</ele>
        <time>2023-02-20T13:08:21Z</time>
      </trkpt>
      <trkpt lat="44.48235" lon="1.55145">
        <ele>122.22</ele>
        <time>2023-02-20T13:08:29Z</time>
      </trkpt>
      <trkpt lat="44.48225" lon="1.55141">
        <ele>122.22</ele>
        <time>2023-02-20T13:08:38Z</time>
      </trkpt>
      <trkpt lat="44.48214" lon="1.55137">
        <ele>122.22</ele>
        <time>2023-02-20T13:08:46Z</time>
      </trkpt>
      <trkpt lat="44.48205" lon="1.55134">
        <ele>122.22</ele>
        <time>2023-02-20T13:08:54Z</time>
      </trkpt>
      <trkpt lat="44.48195" lon="1.5513">
        <ele>122.22</ele>
        <time>2023-02-20T13:09:02Z</time>
      </trkpt>
      <trkpt lat="44.48185" lon="1.55125">
        <ele>122.22</ele>
        <time>2023-02-20T13:09:10Z</time>
      </trkpt>
      <trkpt lat="44.48176" lon="1.55124">
        <ele>122.22</ele>
        <time>2023-02-20T13:09:18Z</time>
      </trkpt>
      <trkpt lat="44.48167" lon="1.5512">
        <ele>122.22</ele>
        <time>2023-02-20T13:09:26Z</time>
      </trkpt>
      <trkpt lat="44.48157" lon="1.55116">
        <ele>122.22</ele>
        <time>2023-02-20T13:09:34Z</time>
      </trkpt>
      <trkpt lat="44.48147" lon="1.55112">
        <ele>122.22</ele>
        <time>2023-02-20T13:09:42Z</time>
      </trkpt>
      <trkpt lat="44.48136" lon="1.55111">
        <ele>122.22</ele>
        <time>2023-02-20T13:09:51Z</time>
      </trkpt>
      <trkpt lat="44.48125" lon="1.55108">
        <ele>122.22</ele>
        <time>2023-02-20T13:10:00Z</time>
      </trkpt>
      <trkpt lat="44.48114" lon="1.55104">
        <ele>122.22</ele>
        <time>2023-02-20T13:10:09Z</time>
      </trkpt>
      <trkpt lat="44.48102" lon="1.551">
        <ele>122.22</ele>
        <time>2023-02-20T13:10:20Z</time>
      </trkpt>
      <trkpt lat="44.4809" lon="1.55096">
        <ele>122.22</ele>
        <time>2023-02-20T13:10:31Z</time>
      </trkpt>
      <trkpt lat="44.48075" lon="1.55089">
        <ele>122.71</ele>
        <time>2023-02-20T13:10:41Z</time>
      </trkpt>
      <trkpt lat="44.48066" lon="1.55086">
        <ele>122.71</ele>
        <time>2023-02-20T13:10:51Z</time>
      </trkpt>
      <trkpt lat="44.48055" lon="1.55084">
        <ele>122.71</ele>
        <time>2023-02-20T13:11:02Z</time>
      </trkpt>
      <trkpt lat="44.48043" lon="1.55083">
        <ele>122.71</ele>
        <time>2023-02-20T13:11:14Z</time>
      </trkpt>
      <trkpt lat="44.48026" lon="1.5508">
        <ele>122.71</ele>
        <time>2023-02-20T13:11:26Z</time>
      </trkpt>
      <trkpt lat="44.48012" lon="1.55076">
        <ele>122.71</ele>
        <time>2023-02-20T13:11:35Z</time>
      </trkpt>
      <trkpt lat="44.48003" lon="1.55071">
        <ele>122.71</ele>
        <time>2023-02-20T13:11:51Z</time>
      </trkpt>
      <trkpt lat="44.47992" lon="1.55065">
        <ele>122.71</ele>
        <time>2023-02-20T13:12:03Z</time>
      </trkpt>
      <trkpt lat="44.47977" lon="1.55059">
        <ele>123.67</ele>
        <time>2023-02-20T13:12:17Z</time>
      </trkpt>
      <trkpt lat="44.47961" lon="1.55051">
        <ele>124.15</ele>
        <time>2023-02-20T13:12:34Z</time>
      </trkpt>
      <trkpt lat="44.4795" lon="1.55047">
        <ele>124.15</ele>
        <time>2023-02-20T13:12:44Z</time>
      </trkpt>
      <trkpt lat="44.47936" lon="1.55045">
        <ele>124.15</ele>
        <time>2023-02-20T13:12:58Z</time>
      </trkpt>
      <trkpt lat="44.47921" lon="1.55045">
        <ele>124.15</ele>
        <time>2023-02-20T13:13:10Z</time>
      </trkpt>
      <trkpt lat="44.47907" lon="1.55047">
        <ele>124.15</ele>
        <time>2023-02-20T13:13:21Z</time>
      </trkpt>
      <trkpt lat="44.47895" lon="1.55048">
        <ele>124.15</ele>
        <time>2023-02-20T13:13:32Z</time>
      </trkpt>
      <trkpt lat="44.47881" lon="1.55046">
        <ele>124.15</ele>
        <time>2023-02-20T13:13:44Z</time>
      </trkpt>
      <trkpt lat="44.47866" lon="1.55043">
        <ele>124.15</ele>
        <time>2023-02-20T13:13:54Z</time>
      </trkpt>
      <trkpt lat="44.47856" lon="1.55031">
        <ele>124.15</ele>
        <time>2023-02-20T13:14:04Z</time>
      </trkpt>
      <trkpt lat="44.47853" lon="1.55014">
        <ele>124.15</ele>
        <time>2023-02-20T13:14:14Z</time>
      </trkpt>
      <trkpt lat="44.47851" lon="1.54996">
        <ele>124.63</ele>
        <time>2023-02-20T13:14:25Z</time>
      </trkpt>
      <trkpt lat="44.4785" lon="1.54977">
        <ele>125.59</ele>
        <time>2023-02-20T13:14:36Z</time>
      </trkpt>
      <trkpt lat="44.47847" lon="1.54959">
        <ele>125.59</ele>
        <time>2023-02-20T13:14:46Z</time>
      </trkpt>
      <trkpt lat="44.47841" lon="1.54946">
        <ele>125.59</ele>
        <time>2023-02-20T13:14:54Z</time>
      </trkpt>
      <trkpt lat="44.47832" lon="1.54938">
        <ele>125.59</ele>
        <time>2023-02-20T13:15:03Z</time>
      </trkpt>
      <trkpt lat="44.47824" lon="1.5493">
        <ele>125.59</ele>
        <time>2023-02-20T13:15:11Z</time>
      </trkpt>
      <trkpt lat="44.47816" lon="1.54922">
        <ele>125.59</ele>
        <time>2023-02-20T13:15:19Z</time>
      </trkpt>
      <trkpt lat="44.47808" lon="1.54915">
        <ele>125.59</ele>
        <time>2023-02-20T13:15:27Z</time>
      </trkpt>
      <trkpt lat="44.47799" lon="1.54911">
        <ele>126.07</ele>
        <time>2023-02-20T13:15:35Z</time>
      </trkpt>
      <trkpt lat="44.47789" lon="1.54905">
        <ele>126.55</ele>
        <time>2023-02-20T13:15:43Z</time>
      </trkpt>
      <trkpt lat="44.4778" lon="1.54901">
        <ele>126.55</ele>
        <time>2023-02-20T13:15:51Z</time>
      </trkpt>
      <trkpt lat="44.4777" lon="1.54896">
        <ele>126.55</ele>
        <time>2023-02-20T13:16:00Z</time>
      </trkpt>
      <trkpt lat="44.4776" lon="1.54892">
        <ele>126.55</ele>
        <time>2023-02-20T13:16:09Z</time>
      </trkpt>
      <trkpt lat="44.47751" lon="1.54886">
        <ele>126.55</ele>
        <time>2023-02-20T13:16:18Z</time>
      </trkpt>
      <trkpt lat="44.47742" lon="1.54878">
        <ele>126.55</ele>
        <time>2023-02-20T13:16:28Z</time>
      </trkpt>
      <trkpt lat="44.47732" lon="1.54868">
        <ele>127.03</ele>
        <time>2023-02-20T13:16:39Z</time>
      </trkpt>
      <trkpt lat="44.47728" lon="1.54848">
        <ele>127.99</ele>
        <time>2023-02-20T13:16:58Z</time>
      </trkpt>
      <trkpt lat="44.47737" lon="1.54839">
        <ele>127.99</ele>
        <time>2023-02-20T13:17:08Z</time>
      </trkpt>
      <trkpt lat="44.47746" lon="1.54829">
        <ele>127.99</ele>
        <time>2023-02-20T13:17:18Z</time>
      </trkpt>
      <trkpt lat="44.47744" lon="1.54841">
        <ele>127.99</ele>
        <time>2023-02-20T13:17:42Z</time>
      </trkpt>
      <trkpt lat="44.4774" lon="1.54837">
        <ele>127.99</ele>
        <time>2023-02-20T13:18:20Z</time>
      </trkpt>
      <trkpt lat="44.47748" lon="1.54828">
        <ele>128.47</ele>
        <time>2023-02-20T13:18:33Z</time>
      </trkpt>
      <trkpt lat="44.47747" lon="1.54818">
        <ele>128.47</ele>
        <time>2023-02-20T13:19:07Z</time>
      </trkpt>
      <trkpt lat="44.47739" lon="1.54811">
        <ele>128.47</ele>
        <time>2023-02-20T13:19:15Z</time>
      </trkpt>
      <trkpt lat="44.47732" lon="1.54805">
        <ele>128.47</ele>
        <time>2023-02-20T13:19:24Z</time>
      </trkpt>
      <trkpt lat="44.47723" lon="1.54798">
        <ele>128.47</ele>
        <time>2023-02-20T13:19:33Z</time>
      </trkpt>
      <trkpt lat="44.47715" lon="1.54791">
        <ele>128.47</ele>
        <time>2023-02-20T13:19:43Z</time>
      </trkpt>
      <trkpt lat="44.47705" lon="1.54786">
        <ele>128.47</ele>
        <time>2023-02-20T13:19:53Z</time>
      </trkpt>
      <trkpt lat="44.47695" lon="1.5478">
        <ele>128.47</ele>
        <time>2023-02-20T13:20:04Z</time>
      </trkpt>
      <trkpt lat="44.47685" lon="1.54776">
        <ele>127.99</ele>
        <time>2023-02-20T13:20:16Z</time>
      </trkpt>
      <trkpt lat="44.47674" lon="1.5477">
        <ele>127.99</ele>
        <time>2023-02-20T13:20:28Z</time>
      </trkpt>
      <trkpt lat="44.47662" lon="1.54765">
        <ele>127.99</ele>
        <time>2023-02-20T13:20:38Z</time>
      </trkpt>
      <trkpt lat="44.47652" lon="1.54762">
        <ele>127.99</ele>
        <time>2023-02-20T13:20:48Z</time>
      </trkpt>
      <trkpt lat="44.4764" lon="1.54758">
        <ele>127.99</ele>
        <time>2023-02-20T13:20:59Z</time>
      </trkpt>
      <trkpt lat="44.4763" lon="1.54755">
        <ele>127.99</ele>
        <time>2023-02-20T13:21:10Z</time>
      </trkpt>
      <trkpt lat="44.47621" lon="1.54751">
        <ele>127.99</ele>
        <time>2023-02-20T13:21:21Z</time>
      </trkpt>
      <trkpt lat="44.4761" lon="1.54748">
        <ele>128.47</ele>
        <time>2023-02-20T13:21:33Z</time>
      </trkpt>
      <trkpt lat="44.47599" lon="1.54746">
        <ele>128.95</ele>
        <time>2023-02-20T13:21:45Z</time>
      </trkpt>
      <trkpt lat="44.47588" lon="1.54742">
        <ele>129.43</ele>
        <time>2023-02-20T13:21:56Z</time>
      </trkpt>
      <trkpt lat="44.47576" lon="1.54741">
        <ele>130.4</ele>
        <time>2023-02-20T13:22:09Z</time>
      </trkpt>
      <trkpt lat="44.47559" lon="1.54737">
        <ele>131.36</ele>
        <time>2023-02-20T13:22:28Z</time>
      </trkpt>
      <trkpt lat="44.47548" lon="1.54735">
        <ele>132.32</ele>
        <time>2023-02-20T13:22:42Z</time>
      </trkpt>
      <trkpt lat="44.47535" lon="1.54732">
        <ele>133.76</ele>
        <time>2023-02-20T13:22:56Z</time>
      </trkpt>
      <trkpt lat="44.47523" lon="1.54732">
        <ele>134.72</ele>
        <time>2023-02-20T13:23:09Z</time>
      </trkpt>
      <trkpt lat="44.47507" lon="1.54737">
        <ele>134.72</ele>
        <time>2023-02-20T13:23:25Z</time>
      </trkpt>
      <trkpt lat="44.47491" lon="1.54744">
        <ele>135.2</ele>
        <time>2023-02-20T13:23:41Z</time>
      </trkpt>
      <trkpt lat="44.47477" lon="1.54751">
        <ele>132.8</ele>
        <time>2023-02-20T13:23:57Z</time>
      </trkpt>
      <trkpt lat="44.47461" lon="1.54757">
        <ele>131.36</ele>
        <time>2023-02-20T13:24:11Z</time>
      </trkpt>
      <trkpt lat="44.47452" lon="1.54763">
        <ele>130.4</ele>
        <time>2023-02-20T13:24:22Z</time>
      </trkpt>
      <trkpt lat="44.4744" lon="1.5477">
        <ele>129.43</ele>
        <time>2023-02-20T13:24:33Z</time>
      </trkpt>
      <trkpt lat="44.47429" lon="1.54772">
        <ele>128.47</ele>
        <time>2023-02-20T13:24:44Z</time>
      </trkpt>
      <trkpt lat="44.47416" lon="1.54779">
        <ele>127.99</ele>
        <time>2023-02-20T13:24:55Z</time>
      </trkpt>
      <trkpt lat="44.47404" lon="1.54783">
        <ele>127.51</ele>
        <time>2023-02-20T13:25:05Z</time>
      </trkpt>
      <trkpt lat="44.47391" lon="1.54788">
        <ele>127.51</ele>
        <time>2023-02-20T13:25:16Z</time>
      </trkpt>
      <trkpt lat="44.47379" lon="1.54794">
        <ele>127.51</ele>
        <time>2023-02-20T13:25:27Z</time>
      </trkpt>
      <trkpt lat="44.47369" lon="1.54798">
        <ele>128.95</ele>
        <time>2023-02-20T13:25:38Z</time>
      </trkpt>
      <trkpt lat="44.47357" lon="1.548">
        <ele>129.43</ele>
        <time>2023-02-20T13:25:51Z</time>
      </trkpt>
      <trkpt lat="44.47345" lon="1.54805">
        <ele>130.4</ele>
        <time>2023-02-20T13:26:04Z</time>
      </trkpt>
      <trkpt lat="44.47333" lon="1.54807">
        <ele>130.88</ele>
        <time>2023-02-20T13:26:16Z</time>
      </trkpt>
      <trkpt lat="44.47324" lon="1.54811">
        <ele>131.84</ele>
        <time>2023-02-20T13:26:26Z</time>
      </trkpt>
      <trkpt lat="44.47314" lon="1.54813">
        <ele>131.84</ele>
        <time>2023-02-20T13:26:36Z</time>
      </trkpt>
      <trkpt lat="44.47303" lon="1.54812">
        <ele>132.8</ele>
        <time>2023-02-20T13:26:47Z</time>
      </trkpt>
      <trkpt lat="44.47292" lon="1.54814">
        <ele>131.36</ele>
        <time>2023-02-20T13:26:57Z</time>
      </trkpt>
      <trkpt lat="44.4728" lon="1.54816">
        <ele>130.4</ele>
        <time>2023-02-20T13:27:08Z</time>
      </trkpt>
      <trkpt lat="44.47268" lon="1.54822">
        <ele>129.92</ele>
        <time>2023-02-20T13:27:18Z</time>
      </trkpt>
      <trkpt lat="44.47252" lon="1.54824">
        <ele>128.95</ele>
        <time>2023-02-20T13:27:29Z</time>
      </trkpt>
      <trkpt lat="44.47241" lon="1.54828">
        <ele>128.95</ele>
        <time>2023-02-20T13:27:39Z</time>
      </trkpt>
      <trkpt lat="44.47229" lon="1.5483">
        <ele>130.4</ele>
        <time>2023-02-20T13:27:50Z</time>
      </trkpt>
      <trkpt lat="44.47218" lon="1.54834">
        <ele>131.84</ele>
        <time>2023-02-20T13:28:01Z</time>
      </trkpt>
      <trkpt lat="44.47207" lon="1.54836">
        <ele>133.76</ele>
        <time>2023-02-20T13:28:12Z</time>
      </trkpt>
      <trkpt lat="44.47196" lon="1.54839">
        <ele>134.24</ele>
        <time>2023-02-20T13:28:23Z</time>
      </trkpt>
      <trkpt lat="44.47184" lon="1.54841">
        <ele>134.24</ele>
        <time>2023-02-20T13:28:34Z</time>
      </trkpt>
      <trkpt lat="44.47172" lon="1.54846">
        <ele>133.76</ele>
        <time>2023-02-20T13:28:44Z</time>
      </trkpt>
      <trkpt lat="44.47161" lon="1.54855">
        <ele>133.76</ele>
        <time>2023-02-20T13:30:38Z</time>
      </trkpt>
      <trkpt lat="44.47148" lon="1.54854">
        <ele>133.76</ele>
        <time>2023-02-20T13:30:56Z</time>
      </trkpt>
      <trkpt lat="44.47136" lon="1.54861">
        <ele>132.32</ele>
        <time>2023-02-20T13:31:11Z</time>
      </trkpt>
      <trkpt lat="44.47123" lon="1.54863">
        <ele>130.4</ele>
        <time>2023-02-20T13:31:29Z</time>
      </trkpt>
      <trkpt lat="44.47111" lon="1.54868">
        <ele>130.4</ele>
        <time>2023-02-20T13:31:43Z</time>
      </trkpt>
      <trkpt lat="44.47098" lon="1.5487">
        <ele>129.43</ele>
        <time>2023-02-20T13:31:56Z</time>
      </trkpt>
      <trkpt lat="44.47085" lon="1.5487">
        <ele>128.47</ele>
        <time>2023-02-20T13:32:10Z</time>
      </trkpt>
      <trkpt lat="44.47073" lon="1.5487">
        <ele>127.51</ele>
        <time>2023-02-20T13:32:24Z</time>
      </trkpt>
      <trkpt lat="44.47058" lon="1.54873">
        <ele>127.03</ele>
        <time>2023-02-20T13:32:38Z</time>
      </trkpt>
      <trkpt lat="44.47047" lon="1.54871">
        <ele>127.03</ele>
        <time>2023-02-20T13:32:49Z</time>
      </trkpt>
      <trkpt lat="44.47036" lon="1.54873">
        <ele>127.03</ele>
        <time>2023-02-20T13:33:00Z</time>
      </trkpt>
      <trkpt lat="44.47024" lon="1.54871">
        <ele>127.03</ele>
        <time>2023-02-20T13:33:12Z</time>
      </trkpt>
      <trkpt lat="44.47011" lon="1.54869">
        <ele>127.03</ele>
        <time>2023-02-20T13:33:24Z</time>
      </trkpt>
      <trkpt lat="44.47002" lon="1.54863">
        <ele>127.03</ele>
        <time>2023-02-20T13:33:36Z</time>
      </trkpt>
      <trkpt lat="44.46985" lon="1.5485">
        <ele>131.84</ele>
        <time>2023-02-20T13:34:07Z</time>
      </trkpt>
      <trkpt lat="44.4697" lon="1.54843">
        <ele>134.72</ele>
        <time>2023-02-20T13:34:31Z</time>
      </trkpt>
      <trkpt lat="44.46959" lon="1.54838">
        <ele>136.64</ele>
        <time>2023-02-20T13:34:49Z</time>
      </trkpt>
      <trkpt lat="44.4695" lon="1.54832">
        <ele>138.57</ele>
        <time>2023-02-20T13:35:02Z</time>
      </trkpt>
      <trkpt lat="44.4694" lon="1.54825">
        <ele>138.57</ele>
        <time>2023-02-20T13:35:21Z</time>
      </trkpt>
      <trkpt lat="44.4693" lon="1.54814">
        <ele>138.57</ele>
        <time>2023-02-20T13:35:33Z</time>
      </trkpt>
      <trkpt lat="44.46915" lon="1.54796">
        <ele>140.49</ele>
        <time>2023-02-20T13:35:53Z</time>
      </trkpt>
      <trkpt lat="44.46905" lon="1.54784">
        <ele>142.41</ele>
        <time>2023-02-20T13:36:10Z</time>
      </trkpt>
      <trkpt lat="44.46894" lon="1.54762">
        <ele>144.82</ele>
        <time>2023-02-20T13:36:35Z</time>
      </trkpt>
      <trkpt lat="44.46886" lon="1.54746">
        <ele>145.78</ele>
        <time>2023-02-20T13:36:50Z</time>
      </trkpt>
      <trkpt lat="44.46877" lon="1.54733">
        <ele>145.78</ele>
        <time>2023-02-20T13:37:05Z</time>
      </trkpt>
      <trkpt lat="44.46867" lon="1.54719">
        <ele>142.89</ele>
        <time>2023-02-20T13:37:19Z</time>
      </trkpt>
      <trkpt lat="44.46858" lon="1.54707">
        <ele>141.45</ele>
        <time>2023-02-20T13:37:30Z</time>
      </trkpt>
      <trkpt lat="44.46849" lon="1.54693">
        <ele>139.53</ele>
        <time>2023-02-20T13:37:41Z</time>
      </trkpt>
      <trkpt lat="44.46841" lon="1.54678">
        <ele>138.09</ele>
        <time>2023-02-20T13:37:51Z</time>
      </trkpt>
      <trkpt lat="44.46836" lon="1.54663">
        <ele>136.64</ele>
        <time>2023-02-20T13:38:00Z</time>
      </trkpt>
      <trkpt lat="44.46829" lon="1.54647">
        <ele>134.72</ele>
        <time>2023-02-20T13:38:13Z</time>
      </trkpt>
      <trkpt lat="44.46823" lon="1.54631">
        <ele>133.28</ele>
        <time>2023-02-20T13:38:23Z</time>
      </trkpt>
      <trkpt lat="44.46818" lon="1.54614">
        <ele>131.84</ele>
        <time>2023-02-20T13:38:33Z</time>
      </trkpt>
      <trkpt lat="44.46816" lon="1.54596">
        <ele>130.88</ele>
        <time>2023-02-20T13:38:41Z</time>
      </trkpt>
      <trkpt lat="44.46811" lon="1.5458">
        <ele>129.43</ele>
        <time>2023-02-20T13:38:49Z</time>
      </trkpt>
      <trkpt lat="44.46809" lon="1.54565">
        <ele>128.95</ele>
        <time>2023-02-20T13:38:57Z</time>
      </trkpt>
      <trkpt lat="44.4681" lon="1.54548">
        <ele>127.99</ele>
        <time>2023-02-20T13:39:06Z</time>
      </trkpt>
      <trkpt lat="44.4681" lon="1.54533">
        <ele>127.51</ele>
        <time>2023-02-20T13:39:14Z</time>
      </trkpt>
      <trkpt lat="44.46808" lon="1.54519">
        <ele>127.03</ele>
        <time>2023-02-20T13:39:22Z</time>
      </trkpt>
      <trkpt lat="44.46807" lon="1.54505">
        <ele>127.03</ele>
        <time>2023-02-20T13:39:29Z</time>
      </trkpt>
      <trkpt lat="44.46801" lon="1.54491">
        <ele>126.55</ele>
        <time>2023-02-20T13:39:36Z</time>
      </trkpt>
      <trkpt lat="44.46801" lon="1.54477">
        <ele>126.55</ele>
        <time>2023-02-20T13:39:43Z</time>
      </trkpt>
      <trkpt lat="44.46811" lon="1.54461">
        <ele>126.55</ele>
        <time>2023-02-20T13:41:08Z</time>
      </trkpt>
      <trkpt lat="44.46819" lon="1.54457">
        <ele>126.55</ele>
        <time>2023-02-20T13:41:18Z</time>
      </trkpt>
      <trkpt lat="44.4683" lon="1.54454">
        <ele>128.95</ele>
        <time>2023-02-20T13:41:28Z</time>
      </trkpt>
      <trkpt lat="44.46839" lon="1.54448">
        <ele>129.92</ele>
        <time>2023-02-20T13:41:38Z</time>
      </trkpt>
      <trkpt lat="44.46846" lon="1.54435">
        <ele>129.92</ele>
        <time>2023-02-20T13:41:48Z</time>
      </trkpt>
      <trkpt lat="44.46848" lon="1.54421">
        <ele>129.92</ele>
        <time>2023-02-20T13:41:57Z</time>
      </trkpt>
      <trkpt lat="44.4685" lon="1.54407">
        <ele>130.4</ele>
        <time>2023-02-20T13:42:07Z</time>
      </trkpt>
      <trkpt lat="44.46851" lon="1.54389">
        <ele>130.88</ele>
        <time>2023-02-20T13:42:17Z</time>
      </trkpt>
      <trkpt lat="44.46858" lon="1.5438">
        <ele>132.32</ele>
        <time>2023-02-20T13:42:27Z</time>
      </trkpt>
      <trkpt lat="44.46871" lon="1.54386">
        <ele>133.76</ele>
        <time>2023-02-20T13:42:42Z</time>
      </trkpt>
      <trkpt lat="44.46884" lon="1.54395">
        <ele>135.68</ele>
        <time>2023-02-20T13:42:56Z</time>
      </trkpt>
      <trkpt lat="44.46895" lon="1.54399">
        <ele>137.61</ele>
        <time>2023-02-20T13:43:08Z</time>
      </trkpt>
      <trkpt lat="44.46908" lon="1.54397">
        <ele>140.49</ele>
        <time>2023-02-20T13:43:25Z</time>
      </trkpt>
      <trkpt lat="44.46919" lon="1.54396">
        <ele>141.93</ele>
        <time>2023-02-20T13:43:36Z</time>
      </trkpt>
      <trkpt lat="44.46929" lon="1.544">
        <ele>142.89</ele>
        <time>2023-02-20T13:43:48Z</time>
      </trkpt>
      <trkpt lat="44.46943" lon="1.54402">
        <ele>143.37</ele>
        <time>2023-02-20T13:44:03Z</time>
      </trkpt>
      <trkpt lat="44.46957" lon="1.54402">
        <ele>144.34</ele>
        <time>2023-02-20T13:44:15Z</time>
      </trkpt>
      <trkpt lat="44.46976" lon="1.54401">
        <ele>145.78</ele>
        <time>2023-02-20T13:44:43Z</time>
      </trkpt>
      <trkpt lat="44.46989" lon="1.544">
        <ele>146.74</ele>
        <time>2023-02-20T13:44:55Z</time>
      </trkpt>
      <trkpt lat="44.46993" lon="1.544">
        <ele>147.7</ele>
        <time>2023-02-20T13:45:53Z</time>
      </trkpt>
      <trkpt lat="44.47" lon="1.54398">
        <ele>148.18</ele>
        <time>2023-02-20T13:46:12Z</time>
      </trkpt>
      <trkpt lat="44.47012" lon="1.54392">
        <ele>150.1</ele>
        <time>2023-02-20T13:46:31Z</time>
      </trkpt>
      <trkpt lat="44.4703" lon="1.54383">
        <ele>152.99</ele>
        <time>2023-02-20T13:46:55Z</time>
      </trkpt>
      <trkpt lat="44.47043" lon="1.54375">
        <ele>155.39</ele>
        <time>2023-02-20T13:47:16Z</time>
      </trkpt>
      <trkpt lat="44.47052" lon="1.54366">
        <ele>157.31</ele>
        <time>2023-02-20T13:47:30Z</time>
      </trkpt>
      <trkpt lat="44.47052" lon="1.54348">
        <ele>158.75</ele>
        <time>2023-02-20T13:47:47Z</time>
      </trkpt>
      <trkpt lat="44.47058" lon="1.5433">
        <ele>160.68</ele>
        <time>2023-02-20T13:48:07Z</time>
      </trkpt>
      <trkpt lat="44.47069" lon="1.54294">
        <ele>165</ele>
        <time>2023-02-20T13:50:20Z</time>
      </trkpt>
      <trkpt lat="44.4707" lon="1.5426">
        <ele>168.37</ele>
        <time>2023-02-20T13:50:45Z</time>
      </trkpt>
      <trkpt lat="44.47076" lon="1.54232">
        <ele>172.21</ele>
        <time>2023-02-20T13:51:14Z</time>
      </trkpt>
      <trkpt lat="44.47136" lon="1.54284">
        <ele>182.79</ele>
        <time>2023-02-20T13:52:49Z</time>
      </trkpt>
      <trkpt lat="44.47133" lon="1.54256">
        <ele>185.19</ele>
        <time>2023-02-20T13:53:18Z</time>
      </trkpt>
      <trkpt lat="44.47126" lon="1.54205">
        <ele>188.56</ele>
        <time>2023-02-20T13:53:59Z</time>
      </trkpt>
      <trkpt lat="44.47119" lon="1.5418">
        <ele>189.04</ele>
        <time>2023-02-20T13:54:17Z</time>
      </trkpt>
      <trkpt lat="44.47109" lon="1.54146">
        <ele>190</ele>
        <time>2023-02-20T13:54:43Z</time>
      </trkpt>
      <trkpt lat="44.47104" lon="1.5412">
        <ele>190</ele>
        <time>2023-02-20T13:55:00Z</time>
      </trkpt>
      <trkpt lat="44.47104" lon="1.54098">
        <ele>190.96</ele>
        <time>2023-02-20T13:55:15Z</time>
      </trkpt>
      <trkpt lat="44.47105" lon="1.54075">
        <ele>191.44</ele>
        <time>2023-02-20T13:55:32Z</time>
      </trkpt>
      <trkpt lat="44.47109" lon="1.54057">
        <ele>191.92</ele>
        <time>2023-02-20T13:55:46Z</time>
      </trkpt>
      <trkpt lat="44.47113" lon="1.54036">
        <ele>192.88</ele>
        <time>2023-02-20T13:55:58Z</time>
      </trkpt>
      <trkpt lat="44.47118" lon="1.54017">
        <ele>193.84</ele>
        <time>2023-02-20T13:56:11Z</time>
      </trkpt>
      <trkpt lat="44.47129" lon="1.53995">
        <ele>195.77</ele>
        <time>2023-02-20T13:56:29Z</time>
      </trkpt>
      <trkpt lat="44.47144" lon="1.53995">
        <ele>198.17</ele>
        <time>2023-02-20T13:56:53Z</time>
      </trkpt>
      <trkpt lat="44.47151" lon="1.54008">
        <ele>199.61</ele>
        <time>2023-02-20T13:57:04Z</time>
      </trkpt>
      <trkpt lat="44.47154" lon="1.5403">
        <ele>199.61</ele>
        <time>2023-02-20T13:59:58Z</time>
      </trkpt>
      <trkpt lat="44.47155" lon="1.54049">
        <ele>200.57</ele>
        <time>2023-02-20T14:00:12Z</time>
      </trkpt>
      <trkpt lat="44.47156" lon="1.54067">
        <ele>201.05</ele>
        <time>2023-02-20T14:00:24Z</time>
      </trkpt>
      <trkpt lat="44.47157" lon="1.54084">
        <ele>201.53</ele>
        <time>2023-02-20T14:00:37Z</time>
      </trkpt>
      <trkpt lat="44.47159" lon="1.54103">
        <ele>202.01</ele>
        <time>2023-02-20T14:00:49Z</time>
      </trkpt>
      <trkpt lat="44.47175" lon="1.54111">
        <ele>204.42</ele>
        <time>2023-02-20T14:01:17Z</time>
      </trkpt>
      <trkpt lat="44.47203" lon="1.54096">
        <ele>208.26</ele>
        <time>2023-02-20T14:01:48Z</time>
      </trkpt>
      <trkpt lat="44.47221" lon="1.54089">
        <ele>210.67</ele>
        <time>2023-02-20T14:02:10Z</time>
      </trkpt>
      <trkpt lat="44.47238" lon="1.54079">
        <ele>213.07</ele>
        <time>2023-02-20T14:02:30Z</time>
      </trkpt>
      <trkpt lat="44.47254" lon="1.54072">
        <ele>214.99</ele>
        <time>2023-02-20T14:02:46Z</time>
      </trkpt>
      <trkpt lat="44.47275" lon="1.54065">
        <ele>216.43</ele>
        <time>2023-02-20T14:03:08Z</time>
      </trkpt>
      <trkpt lat="44.47291" lon="1.54058">
        <ele>217.88</ele>
        <time>2023-02-20T14:03:26Z</time>
      </trkpt>
      <trkpt lat="44.47306" lon="1.54054">
        <ele>218.36</ele>
        <time>2023-02-20T14:03:38Z</time>
      </trkpt>
      <trkpt lat="44.47319" lon="1.54049">
        <ele>219.32</ele>
        <time>2023-02-20T14:03:51Z</time>
      </trkpt>
      <trkpt lat="44.47331" lon="1.54047">
        <ele>220.28</ele>
        <time>2023-02-20T14:04:03Z</time>
      </trkpt>
      <trkpt lat="44.47344" lon="1.54046">
        <ele>220.76</ele>
        <time>2023-02-20T14:04:16Z</time>
      </trkpt>
      <trkpt lat="44.47359" lon="1.54044">
        <ele>221.24</ele>
        <time>2023-02-20T14:04:31Z</time>
      </trkpt>
      <trkpt lat="44.47377" lon="1.54038">
        <ele>221.72</ele>
        <time>2023-02-20T14:04:48Z</time>
      </trkpt>
      <trkpt lat="44.47392" lon="1.54036">
        <ele>222.2</ele>
        <time>2023-02-20T14:05:00Z</time>
      </trkpt>
      <trkpt lat="44.47404" lon="1.54034">
        <ele>222.68</ele>
        <time>2023-02-20T14:05:11Z</time>
      </trkpt>
      <trkpt lat="44.47415" lon="1.54034">
        <ele>223.16</ele>
        <time>2023-02-20T14:05:23Z</time>
      </trkpt>
      <trkpt lat="44.47425" lon="1.54029">
        <ele>223.16</ele>
        <time>2023-02-20T14:05:32Z</time>
      </trkpt>
      <trkpt lat="44.47437" lon="1.54025">
        <ele>221.72</ele>
        <time>2023-02-20T14:05:44Z</time>
      </trkpt>
      <trkpt lat="44.4745" lon="1.5403">
        <ele>221.72</ele>
        <time>2023-02-20T14:06:00Z</time>
      </trkpt>
      <trkpt lat="44.47461" lon="1.54046">
        <ele>223.16</ele>
        <time>2023-02-20T14:06:14Z</time>
      </trkpt>
      <trkpt lat="44.47471" lon="1.54061">
        <ele>224.61</ele>
        <time>2023-02-20T14:06:29Z</time>
      </trkpt>
      <trkpt lat="44.47477" lon="1.54078">
        <ele>225.57</ele>
        <time>2023-02-20T14:06:40Z</time>
      </trkpt>
      <trkpt lat="44.47479" lon="1.54094">
        <ele>227.01</ele>
        <time>2023-02-20T14:06:50Z</time>
      </trkpt>
      <trkpt lat="44.47481" lon="1.54111">
        <ele>227.97</ele>
        <time>2023-02-20T14:07:02Z</time>
      </trkpt>
      <trkpt lat="44.47484" lon="1.54126">
        <ele>228.45</ele>
        <time>2023-02-20T14:07:13Z</time>
      </trkpt>
      <trkpt lat="44.47487" lon="1.54141">
        <ele>228.93</ele>
        <time>2023-02-20T14:07:24Z</time>
      </trkpt>
      <trkpt lat="44.47491" lon="1.54155">
        <ele>229.41</ele>
        <time>2023-02-20T14:07:35Z</time>
      </trkpt>
      <trkpt lat="44.47494" lon="1.54172">
        <ele>229.41</ele>
        <time>2023-02-20T14:07:45Z</time>
      </trkpt>
      <trkpt lat="44.47497" lon="1.54186">
        <ele>228.93</ele>
        <time>2023-02-20T14:07:56Z</time>
      </trkpt>
      <trkpt lat="44.47503" lon="1.542">
        <ele>228.93</ele>
        <time>2023-02-20T14:08:06Z</time>
      </trkpt>
      <trkpt lat="44.47511" lon="1.5421">
        <ele>228.93</ele>
        <time>2023-02-20T14:08:16Z</time>
      </trkpt>
      <trkpt lat="44.47522" lon="1.54214">
        <ele>228.93</ele>
        <time>2023-02-20T14:08:27Z</time>
      </trkpt>
      <trkpt lat="44.47532" lon="1.54208">
        <ele>230.85</ele>
        <time>2023-02-20T14:08:39Z</time>
      </trkpt>
      <trkpt lat="44.47542" lon="1.54199">
        <ele>231.81</ele>
        <time>2023-02-20T14:08:51Z</time>
      </trkpt>
      <trkpt lat="44.47553" lon="1.54191">
        <ele>232.3</ele>
        <time>2023-02-20T14:09:02Z</time>
      </trkpt>
      <trkpt lat="44.47563" lon="1.54182">
        <ele>233.26</ele>
        <time>2023-02-20T14:09:14Z</time>
      </trkpt>
      <trkpt lat="44.47574" lon="1.54173">
        <ele>234.7</ele>
        <time>2023-02-20T14:09:27Z</time>
      </trkpt>
      <trkpt lat="44.47585" lon="1.5416">
        <ele>236.14</ele>
        <time>2023-02-20T14:09:40Z</time>
      </trkpt>
      <trkpt lat="44.47594" lon="1.54147">
        <ele>237.1</ele>
        <time>2023-02-20T14:09:53Z</time>
      </trkpt>
      <trkpt lat="44.47603" lon="1.54134">
        <ele>238.06</ele>
        <time>2023-02-20T14:10:06Z</time>
      </trkpt>
      <trkpt lat="44.47611" lon="1.54121">
        <ele>239.51</ele>
        <time>2023-02-20T14:10:19Z</time>
      </trkpt>
      <trkpt lat="44.47621" lon="1.5411">
        <ele>239.99</ele>
        <time>2023-02-20T14:10:31Z</time>
      </trkpt>
      <trkpt lat="44.47631" lon="1.541">
        <ele>240.95</ele>
        <time>2023-02-20T14:10:43Z</time>
      </trkpt>
      <trkpt lat="44.47643" lon="1.54088">
        <ele>241.43</ele>
        <time>2023-02-20T14:11:00Z</time>
      </trkpt>
      <trkpt lat="44.47653" lon="1.54073">
        <ele>242.87</ele>
        <time>2023-02-20T14:17:11Z</time>
      </trkpt>
      <trkpt lat="44.47656" lon="1.54059">
        <ele>242.87</ele>
        <time>2023-02-20T14:17:23Z</time>
      </trkpt>
      <trkpt lat="44.47659" lon="1.54039">
        <ele>243.35</ele>
        <time>2023-02-20T14:17:50Z</time>
      </trkpt>
      <trkpt lat="44.47661" lon="1.54024">
        <ele>244.31</ele>
        <time>2023-02-20T14:18:14Z</time>
      </trkpt>
      <trkpt lat="44.47663" lon="1.53998">
        <ele>245.75</ele>
        <time>2023-02-20T14:18:51Z</time>
      </trkpt>
      <trkpt lat="44.47666" lon="1.53979">
        <ele>246.72</ele>
        <time>2023-02-20T14:19:08Z</time>
      </trkpt>
      <trkpt lat="44.47668" lon="1.53959">
        <ele>248.64</ele>
        <time>2023-02-20T14:19:24Z</time>
      </trkpt>
      <trkpt lat="44.47669" lon="1.5394">
        <ele>249.6</ele>
        <time>2023-02-20T14:19:36Z</time>
      </trkpt>
      <trkpt lat="44.4767" lon="1.53918">
        <ele>251.52</ele>
        <time>2023-02-20T14:19:53Z</time>
      </trkpt>
      <trkpt lat="44.47672" lon="1.53895">
        <ele>253.93</ele>
        <time>2023-02-20T14:20:10Z</time>
      </trkpt>
      <trkpt lat="44.47676" lon="1.53874">
        <ele>255.85</ele>
        <time>2023-02-20T14:20:24Z</time>
      </trkpt>
      <trkpt lat="44.47677" lon="1.53855">
        <ele>256.81</ele>
        <time>2023-02-20T14:20:37Z</time>
      </trkpt>
      <trkpt lat="44.47684" lon="1.53837">
        <ele>258.25</ele>
        <time>2023-02-20T14:20:52Z</time>
      </trkpt>
      <trkpt lat="44.47686" lon="1.53821">
        <ele>259.69</ele>
        <time>2023-02-20T14:21:51Z</time>
      </trkpt>
      <trkpt lat="44.4769" lon="1.53806">
        <ele>259.69</ele>
        <time>2023-02-20T14:22:00Z</time>
      </trkpt>
      <trkpt lat="44.47697" lon="1.53791">
        <ele>259.69</ele>
        <time>2023-02-20T14:22:10Z</time>
      </trkpt>
      <trkpt lat="44.47703" lon="1.53774">
        <ele>259.69</ele>
        <time>2023-02-20T14:22:31Z</time>
      </trkpt>
      <trkpt lat="44.47709" lon="1.53758">
        <ele>259.69</ele>
        <time>2023-02-20T14:22:42Z</time>
      </trkpt>
      <trkpt lat="44.47716" lon="1.53744">
        <ele>259.69</ele>
        <time>2023-02-20T14:22:51Z</time>
      </trkpt>
      <trkpt lat="44.47723" lon="1.5373">
        <ele>258.73</ele>
        <time>2023-02-20T14:23:00Z</time>
      </trkpt>
      <trkpt lat="44.4773" lon="1.53719">
        <ele>258.25</ele>
        <time>2023-02-20T14:23:09Z</time>
      </trkpt>
      <trkpt lat="44.47738" lon="1.53706">
        <ele>257.77</ele>
        <time>2023-02-20T14:23:18Z</time>
      </trkpt>
      <trkpt lat="44.47747" lon="1.53695">
        <ele>256.81</ele>
        <time>2023-02-20T14:23:27Z</time>
      </trkpt>
      <trkpt lat="44.47758" lon="1.53684">
        <ele>256.81</ele>
        <time>2023-02-20T14:23:36Z</time>
      </trkpt>
      <trkpt lat="44.47766" lon="1.53672">
        <ele>256.33</ele>
        <time>2023-02-20T14:23:46Z</time>
      </trkpt>
      <trkpt lat="44.47774" lon="1.53656">
        <ele>256.33</ele>
        <time>2023-02-20T14:23:56Z</time>
      </trkpt>
      <trkpt lat="44.47781" lon="1.5364">
        <ele>256.33</ele>
        <time>2023-02-20T14:24:05Z</time>
      </trkpt>
      <trkpt lat="44.47787" lon="1.53625">
        <ele>256.33</ele>
        <time>2023-02-20T14:24:15Z</time>
      </trkpt>
      <trkpt lat="44.47792" lon="1.53609">
        <ele>257.29</ele>
        <time>2023-02-20T14:24:25Z</time>
      </trkpt>
      <trkpt lat="44.47796" lon="1.53593">
        <ele>257.29</ele>
        <time>2023-02-20T14:24:34Z</time>
      </trkpt>
      <trkpt lat="44.47801" lon="1.53579">
        <ele>258.25</ele>
        <time>2023-02-20T14:24:43Z</time>
      </trkpt>
      <trkpt lat="44.47805" lon="1.53562">
        <ele>258.73</ele>
        <time>2023-02-20T14:24:53Z</time>
      </trkpt>
      <trkpt lat="44.47809" lon="1.53545">
        <ele>259.69</ele>
        <time>2023-02-20T14:25:04Z</time>
      </trkpt>
      <trkpt lat="44.47814" lon="1.53529">
        <ele>260.65</ele>
        <time>2023-02-20T14:25:24Z</time>
      </trkpt>
      <trkpt lat="44.47818" lon="1.53515">
        <ele>261.62</ele>
        <time>2023-02-20T14:25:46Z</time>
      </trkpt>
      <trkpt lat="44.47825" lon="1.53502">
        <ele>262.1</ele>
        <time>2023-02-20T14:25:56Z</time>
      </trkpt>
      <trkpt lat="44.4783" lon="1.53488">
        <ele>263.06</ele>
        <time>2023-02-20T14:26:06Z</time>
      </trkpt>
      <trkpt lat="44.47835" lon="1.53473">
        <ele>264.5</ele>
        <time>2023-02-20T14:26:16Z</time>
      </trkpt>
      <trkpt lat="44.4784" lon="1.53459">
        <ele>264.98</ele>
        <time>2023-02-20T14:26:26Z</time>
      </trkpt>
      <trkpt lat="44.47847" lon="1.53446">
        <ele>265.94</ele>
        <time>2023-02-20T14:26:36Z</time>
      </trkpt>
      <trkpt lat="44.47853" lon="1.53433">
        <ele>266.9</ele>
        <time>2023-02-20T14:26:46Z</time>
      </trkpt>
      <trkpt lat="44.47858" lon="1.53419">
        <ele>267.38</ele>
        <time>2023-02-20T14:26:56Z</time>
      </trkpt>
      <trkpt lat="44.47865" lon="1.53408">
        <ele>268.35</ele>
        <time>2023-02-20T14:27:27Z</time>
      </trkpt>
      <trkpt lat="44.4787" lon="1.53394">
        <ele>268.35</ele>
        <time>2023-02-20T14:27:39Z</time>
      </trkpt>
      <trkpt lat="44.47874" lon="1.53379">
        <ele>268.35</ele>
        <time>2023-02-20T14:27:50Z</time>
      </trkpt>
      <trkpt lat="44.47881" lon="1.53365">
        <ele>268.83</ele>
        <time>2023-02-20T14:28:02Z</time>
      </trkpt>
      <trkpt lat="44.47887" lon="1.53354">
        <ele>269.31</ele>
        <time>2023-02-20T14:28:14Z</time>
      </trkpt>
      <trkpt lat="44.47893" lon="1.53343">
        <ele>269.79</ele>
        <time>2023-02-20T14:28:24Z</time>
      </trkpt>
      <trkpt lat="44.47901" lon="1.53331">
        <ele>270.27</ele>
        <time>2023-02-20T14:28:35Z</time>
      </trkpt>
      <trkpt lat="44.47909" lon="1.53321">
        <ele>270.75</ele>
        <time>2023-02-20T14:28:47Z</time>
      </trkpt>
      <trkpt lat="44.4792" lon="1.53311">
        <ele>270.75</ele>
        <time>2023-02-20T14:29:31Z</time>
      </trkpt>
      <trkpt lat="44.47929" lon="1.53312">
        <ele>271.23</ele>
        <time>2023-02-20T14:29:44Z</time>
      </trkpt>
      <trkpt lat="44.47939" lon="1.53312">
        <ele>271.71</ele>
        <time>2023-02-20T14:29:55Z</time>
      </trkpt>
      <trkpt lat="44.47949" lon="1.5331">
        <ele>272.19</ele>
        <time>2023-02-20T14:30:05Z</time>
      </trkpt>
      <trkpt lat="44.47959" lon="1.53308">
        <ele>272.19</ele>
        <time>2023-02-20T14:30:16Z</time>
      </trkpt>
      <trkpt lat="44.4797" lon="1.53306">
        <ele>272.67</ele>
        <time>2023-02-20T14:30:26Z</time>
      </trkpt>
      <trkpt lat="44.47982" lon="1.53307">
        <ele>273.15</ele>
        <time>2023-02-20T14:30:40Z</time>
      </trkpt>
      <trkpt lat="44.47995" lon="1.53305">
        <ele>273.15</ele>
        <time>2023-02-20T14:30:51Z</time>
      </trkpt>
      <trkpt lat="44.48006" lon="1.53305">
        <ele>271.71</ele>
        <time>2023-02-20T14:31:02Z</time>
      </trkpt>
      <trkpt lat="44.48018" lon="1.53304">
        <ele>270.75</ele>
        <time>2023-02-20T14:31:14Z</time>
      </trkpt>
      <trkpt lat="44.48027" lon="1.5329">
        <ele>268.35</ele>
        <time>2023-02-20T14:31:30Z</time>
      </trkpt>
      <trkpt lat="44.48033" lon="1.53275">
        <ele>265.94</ele>
        <time>2023-02-20T14:31:44Z</time>
      </trkpt>
      <trkpt lat="44.48045" lon="1.53259">
        <ele>262.58</ele>
        <time>2023-02-20T14:32:03Z</time>
      </trkpt>
      <trkpt lat="44.48065" lon="1.5324">
        <ele>257.29</ele>
        <time>2023-02-20T14:32:29Z</time>
      </trkpt>
      <trkpt lat="44.48077" lon="1.5323">
        <ele>254.41</ele>
        <time>2023-02-20T14:32:42Z</time>
      </trkpt>
      <trkpt lat="44.48092" lon="1.53218">
        <ele>250.56</ele>
        <time>2023-02-20T14:33:05Z</time>
      </trkpt>
      <trkpt lat="44.48104" lon="1.5321">
        <ele>248.64</ele>
        <time>2023-02-20T14:33:17Z</time>
      </trkpt>
      <trkpt lat="44.48113" lon="1.53199">
        <ele>247.2</ele>
        <time>2023-02-20T14:33:27Z</time>
      </trkpt>
      <trkpt lat="44.48125" lon="1.53188">
        <ele>245.27</ele>
        <time>2023-02-20T14:33:40Z</time>
      </trkpt>
      <trkpt lat="44.48136" lon="1.53178">
        <ele>243.83</ele>
        <time>2023-02-20T14:33:55Z</time>
      </trkpt>
      <trkpt lat="44.48146" lon="1.5317">
        <ele>243.83</ele>
        <time>2023-02-20T14:34:06Z</time>
      </trkpt>
      <trkpt lat="44.48155" lon="1.53162">
        <ele>243.35</ele>
        <time>2023-02-20T14:34:15Z</time>
      </trkpt>
      <trkpt lat="44.48164" lon="1.53156">
        <ele>242.87</ele>
        <time>2023-02-20T14:34:26Z</time>
      </trkpt>
      <trkpt lat="44.48174" lon="1.53153">
        <ele>242.87</ele>
        <time>2023-02-20T14:34:36Z</time>
      </trkpt>
      <trkpt lat="44.48185" lon="1.53152">
        <ele>242.87</ele>
        <time>2023-02-20T14:34:49Z</time>
      </trkpt>
      <trkpt lat="44.48201" lon="1.53153">
        <ele>244.31</ele>
        <time>2023-02-20T14:35:09Z</time>
      </trkpt>
      <trkpt lat="44.48219" lon="1.53155">
        <ele>245.27</ele>
        <time>2023-02-20T14:36:21Z</time>
      </trkpt>
      <trkpt lat="44.48209" lon="1.53159">
        <ele>245.27</ele>
        <time>2023-02-20T14:36:32Z</time>
      </trkpt>
      <trkpt lat="44.48217" lon="1.53162">
        <ele>245.27</ele>
        <time>2023-02-20T14:36:46Z</time>
      </trkpt>
      <trkpt lat="44.48227" lon="1.53165">
        <ele>245.75</ele>
        <time>2023-02-20T14:36:57Z</time>
      </trkpt>
      <trkpt lat="44.48239" lon="1.53169">
        <ele>247.2</ele>
        <time>2023-02-20T14:37:09Z</time>
      </trkpt>
      <trkpt lat="44.48252" lon="1.53171">
        <ele>248.64</ele>
        <time>2023-02-20T14:37:22Z</time>
      </trkpt>
      <trkpt lat="44.48266" lon="1.53172">
        <ele>249.6</ele>
        <time>2023-02-20T14:37:35Z</time>
      </trkpt>
      <trkpt lat="44.48282" lon="1.53174">
        <ele>249.6</ele>
        <time>2023-02-20T14:37:50Z</time>
      </trkpt>
      <trkpt lat="44.48298" lon="1.53176">
        <ele>250.08</ele>
        <time>2023-02-20T14:38:03Z</time>
      </trkpt>
      <trkpt lat="44.48312" lon="1.5318">
        <ele>250.56</ele>
        <time>2023-02-20T14:38:15Z</time>
      </trkpt>
      <trkpt lat="44.48329" lon="1.53183">
        <ele>251.04</ele>
        <time>2023-02-20T14:38:29Z</time>
      </trkpt>
      <trkpt lat="44.48345" lon="1.53188">
        <ele>251.52</ele>
        <time>2023-02-20T14:38:42Z</time>
      </trkpt>
      <trkpt lat="44.48359" lon="1.5318">
        <ele>252.48</ele>
        <time>2023-02-20T14:38:54Z</time>
      </trkpt>
      <trkpt lat="44.48368" lon="1.53167">
        <ele>252.96</ele>
        <time>2023-02-20T14:39:05Z</time>
      </trkpt>
      <trkpt lat="44.48376" lon="1.53155">
        <ele>252.96</ele>
        <time>2023-02-20T14:39:16Z</time>
      </trkpt>
      <trkpt lat="44.48386" lon="1.53132">
        <ele>252.96</ele>
        <time>2023-02-20T14:40:26Z</time>
      </trkpt>
      <trkpt lat="44.48401" lon="1.53119">
        <ele>252.96</ele>
        <time>2023-02-20T14:41:10Z</time>
      </trkpt>
      <trkpt lat="44.48411" lon="1.53105">
        <ele>253.93</ele>
        <time>2023-02-20T14:41:27Z</time>
      </trkpt>
      <trkpt lat="44.48419" lon="1.53096">
        <ele>253.93</ele>
        <time>2023-02-20T14:41:39Z</time>
      </trkpt>
      <trkpt lat="44.48431" lon="1.53088">
        <ele>254.89</ele>
        <time>2023-02-20T14:42:02Z</time>
      </trkpt>
      <trkpt lat="44.48442" lon="1.53083">
        <ele>255.85</ele>
        <time>2023-02-20T14:42:15Z</time>
      </trkpt>
      <trkpt lat="44.48455" lon="1.53073">
        <ele>256.33</ele>
        <time>2023-02-20T14:42:33Z</time>
      </trkpt>
      <trkpt lat="44.48465" lon="1.53065">
        <ele>257.29</ele>
        <time>2023-02-20T14:42:46Z</time>
      </trkpt>
      <trkpt lat="44.48476" lon="1.53055">
        <ele>258.25</ele>
        <time>2023-02-20T14:42:59Z</time>
      </trkpt>
      <trkpt lat="44.48486" lon="1.53043">
        <ele>258.73</ele>
        <time>2023-02-20T14:43:11Z</time>
      </trkpt>
      <trkpt lat="44.48495" lon="1.53033">
        <ele>258.73</ele>
        <time>2023-02-20T14:43:22Z</time>
      </trkpt>
      <trkpt lat="44.48505" lon="1.53023">
        <ele>259.21</ele>
        <time>2023-02-20T14:43:34Z</time>
      </trkpt>
      <trkpt lat="44.48515" lon="1.53011">
        <ele>259.21</ele>
        <time>2023-02-20T14:43:46Z</time>
      </trkpt>
      <trkpt lat="44.48524" lon="1.53">
        <ele>259.21</ele>
        <time>2023-02-20T14:43:57Z</time>
      </trkpt>
      <trkpt lat="44.48533" lon="1.52989">
        <ele>259.21</ele>
        <time>2023-02-20T14:44:07Z</time>
      </trkpt>
      <trkpt lat="44.48542" lon="1.52978">
        <ele>257.77</ele>
        <time>2023-02-20T14:44:17Z</time>
      </trkpt>
      <trkpt lat="44.4855" lon="1.52967">
        <ele>257.77</ele>
        <time>2023-02-20T14:44:28Z</time>
      </trkpt>
      <trkpt lat="44.48558" lon="1.52955">
        <ele>257.77</ele>
        <time>2023-02-20T14:44:39Z</time>
      </trkpt>
      <trkpt lat="44.48565" lon="1.5294">
        <ele>257.77</ele>
        <time>2023-02-20T14:44:51Z</time>
      </trkpt>
      <trkpt lat="44.48573" lon="1.52924">
        <ele>258.73</ele>
        <time>2023-02-20T14:45:04Z</time>
      </trkpt>
      <trkpt lat="44.48581" lon="1.52908">
        <ele>259.21</ele>
        <time>2023-02-20T14:45:16Z</time>
      </trkpt>
      <trkpt lat="44.48589" lon="1.52892">
        <ele>259.21</ele>
        <time>2023-02-20T14:45:28Z</time>
      </trkpt>
      <trkpt lat="44.48596" lon="1.52876">
        <ele>259.69</ele>
        <time>2023-02-20T14:45:41Z</time>
      </trkpt>
      <trkpt lat="44.48599" lon="1.52846">
        <ele>259.69</ele>
        <time>2023-02-20T14:46:22Z</time>
      </trkpt>
      <trkpt lat="44.48596" lon="1.52828">
        <ele>259.69</ele>
        <time>2023-02-20T14:46:36Z</time>
      </trkpt>
      <trkpt lat="44.48593" lon="1.52812">
        <ele>261.62</ele>
        <time>2023-02-20T14:46:53Z</time>
      </trkpt>
      <trkpt lat="44.48589" lon="1.52796">
        <ele>263.54</ele>
        <time>2023-02-20T14:47:06Z</time>
      </trkpt>
      <trkpt lat="44.48583" lon="1.52779">
        <ele>266.42</ele>
        <time>2023-02-20T14:47:21Z</time>
      </trkpt>
      <trkpt lat="44.48579" lon="1.5276">
        <ele>269.31</ele>
        <time>2023-02-20T14:47:37Z</time>
      </trkpt>
      <trkpt lat="44.48578" lon="1.52741">
        <ele>272.19</ele>
        <time>2023-02-20T14:47:53Z</time>
      </trkpt>
      <trkpt lat="44.48579" lon="1.52718">
        <ele>274.59</ele>
        <time>2023-02-20T14:48:10Z</time>
      </trkpt>
      <trkpt lat="44.48583" lon="1.52697">
        <ele>276.52</ele>
        <time>2023-02-20T14:48:27Z</time>
      </trkpt>
      <trkpt lat="44.48586" lon="1.52675">
        <ele>277.96</ele>
        <time>2023-02-20T14:48:40Z</time>
      </trkpt>
      <trkpt lat="44.48589" lon="1.52656">
        <ele>278.92</ele>
        <time>2023-02-20T14:48:54Z</time>
      </trkpt>
      <trkpt lat="44.48591" lon="1.52632">
        <ele>279.88</ele>
        <time>2023-02-20T14:49:10Z</time>
      </trkpt>
      <trkpt lat="44.48592" lon="1.52612">
        <ele>280.84</ele>
        <time>2023-02-20T14:49:23Z</time>
      </trkpt>
      <trkpt lat="44.48595" lon="1.52594">
        <ele>281.32</ele>
        <time>2023-02-20T14:49:36Z</time>
      </trkpt>
      <trkpt lat="44.48596" lon="1.52574">
        <ele>281.8</ele>
        <time>2023-02-20T14:49:49Z</time>
      </trkpt>
      <trkpt lat="44.48599" lon="1.52555">
        <ele>281.8</ele>
        <time>2023-02-20T14:50:01Z</time>
      </trkpt>
      <trkpt lat="44.48602" lon="1.52533">
        <ele>282.28</ele>
        <time>2023-02-20T14:50:16Z</time>
      </trkpt>
      <trkpt lat="44.48606" lon="1.52512">
        <ele>282.77</ele>
        <time>2023-02-20T14:50:30Z</time>
      </trkpt>
      <trkpt lat="44.48612" lon="1.52481">
        <ele>283.25</ele>
        <time>2023-02-20T14:50:53Z</time>
      </trkpt>
      <trkpt lat="44.48618" lon="1.52462">
        <ele>283.73</ele>
        <time>2023-02-20T14:51:06Z</time>
      </trkpt>
      <trkpt lat="44.48624" lon="1.52444">
        <ele>283.25</ele>
        <time>2023-02-20T14:51:21Z</time>
      </trkpt>
      <trkpt lat="44.48629" lon="1.52429">
        <ele>283.25</ele>
        <time>2023-02-20T14:51:31Z</time>
      </trkpt>
      <trkpt lat="44.48634" lon="1.52413">
        <ele>283.25</ele>
        <time>2023-02-20T14:51:43Z</time>
      </trkpt>
      <trkpt lat="44.4864" lon="1.52398">
        <ele>282.28</ele>
        <time>2023-02-20T14:51:55Z</time>
      </trkpt>
      <trkpt lat="44.48646" lon="1.52383">
        <ele>280.36</ele>
        <time>2023-02-20T14:52:07Z</time>
      </trkpt>
      <trkpt lat="44.48655" lon="1.52365">
        <ele>278.44</ele>
        <time>2023-02-20T14:52:23Z</time>
      </trkpt>
      <trkpt lat="44.48661" lon="1.52349">
        <ele>277</ele>
        <time>2023-02-20T14:52:35Z</time>
      </trkpt>
      <trkpt lat="44.48662" lon="1.52328">
        <ele>276.52</ele>
        <time>2023-02-20T14:52:50Z</time>
      </trkpt>
      <trkpt lat="44.48662" lon="1.52306">
        <ele>275.56</ele>
        <time>2023-02-20T14:53:04Z</time>
      </trkpt>
      <trkpt lat="44.48664" lon="1.52284">
        <ele>274.59</ele>
        <time>2023-02-20T14:53:19Z</time>
      </trkpt>
      <trkpt lat="44.48667" lon="1.52262">
        <ele>273.63</ele>
        <time>2023-02-20T14:53:31Z</time>
      </trkpt>
      <trkpt lat="44.48669" lon="1.52242">
        <ele>273.63</ele>
        <time>2023-02-20T14:53:45Z</time>
      </trkpt>
      <trkpt lat="44.48665" lon="1.52218">
        <ele>271.23</ele>
        <time>2023-02-20T14:54:04Z</time>
      </trkpt>
      <trkpt lat="44.48673" lon="1.52185">
        <ele>272.67</ele>
        <time>2023-02-20T14:54:37Z</time>
      </trkpt>
      <trkpt lat="44.48681" lon="1.52173">
        <ele>274.11</ele>
        <time>2023-02-20T14:54:49Z</time>
      </trkpt>
      <trkpt lat="44.48689" lon="1.52162">
        <ele>274.59</ele>
        <time>2023-02-20T14:55:00Z</time>
      </trkpt>
      <trkpt lat="44.48696" lon="1.52149">
        <ele>275.56</ele>
        <time>2023-02-20T14:55:11Z</time>
      </trkpt>
      <trkpt lat="44.48703" lon="1.52134">
        <ele>276.04</ele>
        <time>2023-02-20T14:55:22Z</time>
      </trkpt>
      <trkpt lat="44.48711" lon="1.52122">
        <ele>276.04</ele>
        <time>2023-02-20T14:55:34Z</time>
      </trkpt>
      <trkpt lat="44.48721" lon="1.52121">
        <ele>276.04</ele>
        <time>2023-02-20T14:55:46Z</time>
      </trkpt>
      <trkpt lat="44.48726" lon="1.52136">
        <ele>277.48</ele>
        <time>2023-02-20T14:56:44Z</time>
      </trkpt>
      <trkpt lat="44.4873" lon="1.52154">
        <ele>279.88</ele>
        <time>2023-02-20T14:57:00Z</time>
      </trkpt>
      <trkpt lat="44.48735" lon="1.5217">
        <ele>281.32</ele>
        <time>2023-02-20T14:57:12Z</time>
      </trkpt>
      <trkpt lat="44.48738" lon="1.52186">
        <ele>282.77</ele>
        <time>2023-02-20T14:57:24Z</time>
      </trkpt>
      <trkpt lat="44.48743" lon="1.52202">
        <ele>284.69</ele>
        <time>2023-02-20T14:57:38Z</time>
      </trkpt>
      <trkpt lat="44.4875" lon="1.5222">
        <ele>287.09</ele>
        <time>2023-02-20T14:57:54Z</time>
      </trkpt>
      <trkpt lat="44.48757" lon="1.52237">
        <ele>288.53</ele>
        <time>2023-02-20T14:58:07Z</time>
      </trkpt>
      <trkpt lat="44.4876" lon="1.52255">
        <ele>290.46</ele>
        <time>2023-02-20T14:58:20Z</time>
      </trkpt>
      <trkpt lat="44.48765" lon="1.52273">
        <ele>291.9</ele>
        <time>2023-02-20T14:58:33Z</time>
      </trkpt>
      <trkpt lat="44.4877" lon="1.52289">
        <ele>293.82</ele>
        <time>2023-02-20T14:58:45Z</time>
      </trkpt>
      <trkpt lat="44.48776" lon="1.52304">
        <ele>295.26</ele>
        <time>2023-02-20T14:58:57Z</time>
      </trkpt>
      <trkpt lat="44.48776" lon="1.52324">
        <ele>296.22</ele>
        <time>2023-02-20T14:59:18Z</time>
      </trkpt>
      <trkpt lat="44.48766" lon="1.52319">
        <ele>296.7</ele>
        <time>2023-02-20T14:59:37Z</time>
      </trkpt>
      <trkpt lat="44.48759" lon="1.52317">
        <ele>294.78</ele>
        <time>2023-02-20T15:00:07Z</time>
      </trkpt>
      <trkpt lat="44.48762" lon="1.52316">
        <ele>294.3</ele>
        <time>2023-02-20T15:01:00Z</time>
      </trkpt>
      <trkpt lat="44.48772" lon="1.52319">
        <ele>296.22</ele>
        <time>2023-02-20T15:01:19Z</time>
      </trkpt>
      <trkpt lat="44.48775" lon="1.52332">
        <ele>297.67</ele>
        <time>2023-02-20T15:02:33Z</time>
      </trkpt>
      <trkpt lat="44.48772" lon="1.52315">
        <ele>297.18</ele>
        <time>2023-02-20T15:06:22Z</time>
      </trkpt>
      <trkpt lat="44.48774" lon="1.52325">
        <ele>296.22</ele>
        <time>2023-02-20T15:06:51Z</time>
      </trkpt>
      <trkpt lat="44.48772" lon="1.52328">
        <ele>297.18</ele>
        <time>2023-02-20T15:07:53Z</time>
      </trkpt>
      <trkpt lat="44.48775" lon="1.5232">
        <ele>297.18</ele>
        <time>2023-02-20T15:09:45Z</time>
      </trkpt>
      <trkpt lat="44.48787" lon="1.52325">
        <ele>298.15</ele>
        <time>2023-02-20T15:10:00Z</time>
      </trkpt>
      <trkpt lat="44.48782" lon="1.52328">
        <ele>296.7</ele>
        <time>2023-02-20T15:10:56Z</time>
      </trkpt>
      <trkpt lat="44.48776" lon="1.52334">
        <ele>296.22</ele>
        <time>2023-02-20T15:11:36Z</time>
      </trkpt>
      <trkpt lat="44.48777" lon="1.52348">
        <ele>297.67</ele>
        <time>2023-02-20T15:12:33Z</time>
      </trkpt>
      <trkpt lat="44.48778" lon="1.52363">
        <ele>298.63</ele>
        <time>2023-02-20T15:12:46Z</time>
      </trkpt>
      <trkpt lat="44.48778" lon="1.52377">
        <ele>299.59</ele>
        <time>2023-02-20T15:12:58Z</time>
      </trkpt>
      <trkpt lat="44.48779" lon="1.52392">
        <ele>300.55</ele>
        <time>2023-02-20T15:13:10Z</time>
      </trkpt>
      <trkpt lat="44.48779" lon="1.52408">
        <ele>301.51</ele>
        <time>2023-02-20T15:13:21Z</time>
      </trkpt>
      <trkpt lat="44.4878" lon="1.52425">
        <ele>302.47</ele>
        <time>2023-02-20T15:13:50Z</time>
      </trkpt>
      <trkpt lat="44.48782" lon="1.52439">
        <ele>303.43</ele>
        <time>2023-02-20T15:14:02Z</time>
      </trkpt>
      <trkpt lat="44.48786" lon="1.52457">
        <ele>303.43</ele>
        <time>2023-02-20T15:14:17Z</time>
      </trkpt>
      <trkpt lat="44.48788" lon="1.52477">
        <ele>303.43</ele>
        <time>2023-02-20T15:14:31Z</time>
      </trkpt>
      <trkpt lat="44.48792" lon="1.52498">
        <ele>301.51</ele>
        <time>2023-02-20T15:14:46Z</time>
      </trkpt>
      <trkpt lat="44.48791" lon="1.52511">
        <ele>301.51</ele>
        <time>2023-02-20T15:15:07Z</time>
      </trkpt>
      <trkpt lat="44.48792" lon="1.52526">
        <ele>301.51</ele>
        <time>2023-02-20T15:15:29Z</time>
      </trkpt>
      <trkpt lat="44.48795" lon="1.52542">
        <ele>301.51</ele>
        <time>2023-02-20T15:15:39Z</time>
      </trkpt>
      <trkpt lat="44.48797" lon="1.52561">
        <ele>301.51</ele>
        <time>2023-02-20T15:15:49Z</time>
      </trkpt>
      <trkpt lat="44.48799" lon="1.52576">
        <ele>302.95</ele>
        <time>2023-02-20T15:15:58Z</time>
      </trkpt>
      <trkpt lat="44.488" lon="1.52591">
        <ele>303.43</ele>
        <time>2023-02-20T15:16:09Z</time>
      </trkpt>
      <trkpt lat="44.48801" lon="1.52608">
        <ele>303.91</ele>
        <time>2023-02-20T15:16:19Z</time>
      </trkpt>
      <trkpt lat="44.48803" lon="1.52625">
        <ele>304.39</ele>
        <time>2023-02-20T15:16:29Z</time>
      </trkpt>
      <trkpt lat="44.48805" lon="1.52641">
        <ele>305.36</ele>
        <time>2023-02-20T15:16:40Z</time>
      </trkpt>
      <trkpt lat="44.48807" lon="1.52659">
        <ele>305.84</ele>
        <time>2023-02-20T15:16:53Z</time>
      </trkpt>
      <trkpt lat="44.48809" lon="1.52676">
        <ele>306.8</ele>
        <time>2023-02-20T15:17:05Z</time>
      </trkpt>
      <trkpt lat="44.48809" lon="1.52694">
        <ele>308.24</ele>
        <time>2023-02-20T15:17:30Z</time>
      </trkpt>
      <trkpt lat="44.48812" lon="1.52712">
        <ele>308.24</ele>
        <time>2023-02-20T15:17:45Z</time>
      </trkpt>
      <trkpt lat="44.48815" lon="1.52729">
        <ele>309.68</ele>
        <time>2023-02-20T15:17:57Z</time>
      </trkpt>
      <trkpt lat="44.48818" lon="1.52746">
        <ele>310.64</ele>
        <time>2023-02-20T15:18:08Z</time>
      </trkpt>
      <trkpt lat="44.48822" lon="1.52766">
        <ele>312.09</ele>
        <time>2023-02-20T15:18:22Z</time>
      </trkpt>
      <trkpt lat="44.48826" lon="1.52783">
        <ele>312.57</ele>
        <time>2023-02-20T15:18:34Z</time>
      </trkpt>
      <trkpt lat="44.48833" lon="1.52798">
        <ele>313.53</ele>
        <time>2023-02-20T15:18:45Z</time>
      </trkpt>
      <trkpt lat="44.48841" lon="1.52809">
        <ele>314.49</ele>
        <time>2023-02-20T15:18:56Z</time>
      </trkpt>
      <trkpt lat="44.48846" lon="1.52825">
        <ele>314.49</ele>
        <time>2023-02-20T15:19:08Z</time>
      </trkpt>
      <trkpt lat="44.48849" lon="1.52842">
        <ele>315.45</ele>
        <time>2023-02-20T15:19:19Z</time>
      </trkpt>
      <trkpt lat="44.48849" lon="1.52859">
        <ele>315.93</ele>
        <time>2023-02-20T15:19:30Z</time>
      </trkpt>
      <trkpt lat="44.48852" lon="1.52879">
        <ele>315.93</ele>
        <time>2023-02-20T15:19:41Z</time>
      </trkpt>
      <trkpt lat="44.48856" lon="1.52895">
        <ele>316.41</ele>
        <time>2023-02-20T15:19:51Z</time>
      </trkpt>
      <trkpt lat="44.48862" lon="1.52911">
        <ele>316.89</ele>
        <time>2023-02-20T15:20:02Z</time>
      </trkpt>
      <trkpt lat="44.48868" lon="1.52924">
        <ele>316.89</ele>
        <time>2023-02-20T15:20:12Z</time>
      </trkpt>
      <trkpt lat="44.48874" lon="1.52937">
        <ele>316.89</ele>
        <time>2023-02-20T15:20:22Z</time>
      </trkpt>
      <trkpt lat="44.48881" lon="1.52952">
        <ele>316.89</ele>
        <time>2023-02-20T15:20:33Z</time>
      </trkpt>
      <trkpt lat="44.48889" lon="1.52965">
        <ele>315.45</ele>
        <time>2023-02-20T15:20:44Z</time>
      </trkpt>
      <trkpt lat="44.48894" lon="1.52979">
        <ele>314.97</ele>
        <time>2023-02-20T15:20:56Z</time>
      </trkpt>
      <trkpt lat="44.48898" lon="1.52995">
        <ele>312.57</ele>
        <time>2023-02-20T15:21:11Z</time>
      </trkpt>
      <trkpt lat="44.48902" lon="1.53013">
        <ele>310.64</ele>
        <time>2023-02-20T15:21:28Z</time>
      </trkpt>
      <trkpt lat="44.48905" lon="1.53028">
        <ele>308.24</ele>
        <time>2023-02-20T15:21:44Z</time>
      </trkpt>
      <trkpt lat="44.48908" lon="1.53049">
        <ele>305.36</ele>
        <time>2023-02-20T15:22:01Z</time>
      </trkpt>
      <trkpt lat="44.48913" lon="1.5307">
        <ele>303.91</ele>
        <time>2023-02-20T15:22:19Z</time>
      </trkpt>
      <trkpt lat="44.48921" lon="1.53082">
        <ele>302.95</ele>
        <time>2023-02-20T15:22:30Z</time>
      </trkpt>
      <trkpt lat="44.48929" lon="1.53091">
        <ele>302.47</ele>
        <time>2023-02-20T15:22:43Z</time>
      </trkpt>
      <trkpt lat="44.48934" lon="1.53106">
        <ele>301.03</ele>
        <time>2023-02-20T15:22:58Z</time>
      </trkpt>
      <trkpt lat="44.48933" lon="1.53123">
        <ele>299.59</ele>
        <time>2023-02-20T15:23:11Z</time>
      </trkpt>
      <trkpt lat="44.48928" lon="1.53138">
        <ele>298.15</ele>
        <time>2023-02-20T15:23:24Z</time>
      </trkpt>
      <trkpt lat="44.48921" lon="1.53153">
        <ele>296.7</ele>
        <time>2023-02-20T15:23:36Z</time>
      </trkpt>
      <trkpt lat="44.48915" lon="1.53165">
        <ele>295.26</ele>
        <time>2023-02-20T15:23:47Z</time>
      </trkpt>
      <trkpt lat="44.4891" lon="1.53178">
        <ele>293.82</ele>
        <time>2023-02-20T15:23:58Z</time>
      </trkpt>
      <trkpt lat="44.48905" lon="1.53191">
        <ele>292.38</ele>
        <time>2023-02-20T15:24:09Z</time>
      </trkpt>
      <trkpt lat="44.48899" lon="1.53205">
        <ele>290.94</ele>
        <time>2023-02-20T15:24:21Z</time>
      </trkpt>
      <trkpt lat="44.48894" lon="1.53218">
        <ele>289.49</ele>
        <time>2023-02-20T15:24:33Z</time>
      </trkpt>
      <trkpt lat="44.48887" lon="1.53228">
        <ele>289.01</ele>
        <time>2023-02-20T15:24:45Z</time>
      </trkpt>
      <trkpt lat="44.48878" lon="1.53238">
        <ele>288.05</ele>
        <time>2023-02-20T15:24:56Z</time>
      </trkpt>
      <trkpt lat="44.48869" lon="1.53249">
        <ele>287.09</ele>
        <time>2023-02-20T15:25:07Z</time>
      </trkpt>
      <trkpt lat="44.4886" lon="1.53258">
        <ele>286.61</ele>
        <time>2023-02-20T15:25:18Z</time>
      </trkpt>
      <trkpt lat="44.4885" lon="1.53269">
        <ele>285.65</ele>
        <time>2023-02-20T15:25:29Z</time>
      </trkpt>
      <trkpt lat="44.48841" lon="1.53279">
        <ele>285.17</ele>
        <time>2023-02-20T15:25:39Z</time>
      </trkpt>
      <trkpt lat="44.48832" lon="1.53288">
        <ele>284.69</ele>
        <time>2023-02-20T15:25:48Z</time>
      </trkpt>
      <trkpt lat="44.48823" lon="1.53296">
        <ele>284.21</ele>
        <time>2023-02-20T15:25:58Z</time>
      </trkpt>
      <trkpt lat="44.48814" lon="1.53303">
        <ele>283.73</ele>
        <time>2023-02-20T15:26:08Z</time>
      </trkpt>
      <trkpt lat="44.48806" lon="1.53313">
        <ele>283.25</ele>
        <time>2023-02-20T15:26:19Z</time>
      </trkpt>
      <trkpt lat="44.48797" lon="1.53326">
        <ele>282.77</ele>
        <time>2023-02-20T15:26:30Z</time>
      </trkpt>
      <trkpt lat="44.48789" lon="1.53335">
        <ele>282.28</ele>
        <time>2023-02-20T15:26:40Z</time>
      </trkpt>
      <trkpt lat="44.48779" lon="1.5335">
        <ele>281.32</ele>
        <time>2023-02-20T15:26:53Z</time>
      </trkpt>
      <trkpt lat="44.48769" lon="1.53364">
        <ele>280.36</ele>
        <time>2023-02-20T15:27:07Z</time>
      </trkpt>
      <trkpt lat="44.4876" lon="1.53375">
        <ele>279.88</ele>
        <time>2023-02-20T15:27:18Z</time>
      </trkpt>
      <trkpt lat="44.4875" lon="1.53386">
        <ele>279.4</ele>
        <time>2023-02-20T15:27:29Z</time>
      </trkpt>
      <trkpt lat="44.48739" lon="1.53397">
        <ele>278.92</ele>
        <time>2023-02-20T15:27:39Z</time>
      </trkpt>
      <trkpt lat="44.4873" lon="1.53406">
        <ele>278.44</ele>
        <time>2023-02-20T15:27:50Z</time>
      </trkpt>
      <trkpt lat="44.4872" lon="1.53418">
        <ele>277.96</ele>
        <time>2023-02-20T15:28:01Z</time>
      </trkpt>
      <trkpt lat="44.48711" lon="1.53429">
        <ele>277.96</ele>
        <time>2023-02-20T15:28:12Z</time>
      </trkpt>
      <trkpt lat="44.48702" lon="1.53441">
        <ele>277.48</ele>
        <time>2023-02-20T15:28:24Z</time>
      </trkpt>
      <trkpt lat="44.48693" lon="1.53451">
        <ele>277.48</ele>
        <time>2023-02-20T15:28:34Z</time>
      </trkpt>
      <trkpt lat="44.48684" lon="1.5346">
        <ele>277.48</ele>
        <time>2023-02-20T15:28:43Z</time>
      </trkpt>
      <trkpt lat="44.48676" lon="1.53471">
        <ele>277.48</ele>
        <time>2023-02-20T15:28:53Z</time>
      </trkpt>
      <trkpt lat="44.48665" lon="1.53483">
        <ele>277</ele>
        <time>2023-02-20T15:29:05Z</time>
      </trkpt>
      <trkpt lat="44.48657" lon="1.53495">
        <ele>277</ele>
        <time>2023-02-20T15:29:15Z</time>
      </trkpt>
      <trkpt lat="44.4865" lon="1.53506">
        <ele>277</ele>
        <time>2023-02-20T15:29:26Z</time>
      </trkpt>
      <trkpt lat="44.48641" lon="1.53517">
        <ele>277</ele>
        <time>2023-02-20T15:29:35Z</time>
      </trkpt>
      <trkpt lat="44.48634" lon="1.53529">
        <ele>277</ele>
        <time>2023-02-20T15:29:44Z</time>
      </trkpt>
      <trkpt lat="44.48629" lon="1.53543">
        <ele>275.56</ele>
        <time>2023-02-20T15:29:53Z</time>
      </trkpt>
      <trkpt lat="44.48627" lon="1.53558">
        <ele>275.07</ele>
        <time>2023-02-20T15:30:02Z</time>
      </trkpt>
      <trkpt lat="44.48625" lon="1.53573">
        <ele>274.11</ele>
        <time>2023-02-20T15:30:11Z</time>
      </trkpt>
      <trkpt lat="44.48622" lon="1.53588">
        <ele>273.15</ele>
        <time>2023-02-20T15:30:21Z</time>
      </trkpt>
      <trkpt lat="44.4862" lon="1.53602">
        <ele>272.67</ele>
        <time>2023-02-20T15:30:30Z</time>
      </trkpt>
      <trkpt lat="44.48619" lon="1.53617">
        <ele>272.19</ele>
        <time>2023-02-20T15:30:39Z</time>
      </trkpt>
      <trkpt lat="44.48616" lon="1.53631">
        <ele>272.19</ele>
        <time>2023-02-20T15:30:48Z</time>
      </trkpt>
      <trkpt lat="44.48614" lon="1.53646">
        <ele>272.19</ele>
        <time>2023-02-20T15:30:57Z</time>
      </trkpt>
      <trkpt lat="44.48612" lon="1.53661">
        <ele>272.19</ele>
        <time>2023-02-20T15:31:06Z</time>
      </trkpt>
      <trkpt lat="44.48612" lon="1.53678">
        <ele>271.71</ele>
        <time>2023-02-20T15:31:17Z</time>
      </trkpt>
      <trkpt lat="44.48613" lon="1.53692">
        <ele>271.71</ele>
        <time>2023-02-20T15:31:26Z</time>
      </trkpt>
      <trkpt lat="44.48613" lon="1.53707">
        <ele>271.71</ele>
        <time>2023-02-20T15:31:35Z</time>
      </trkpt>
      <trkpt lat="44.48616" lon="1.53721">
        <ele>271.71</ele>
        <time>2023-02-20T15:31:45Z</time>
      </trkpt>
      <trkpt lat="44.48621" lon="1.53733">
        <ele>271.71</ele>
        <time>2023-02-20T15:31:56Z</time>
      </trkpt>
      <trkpt lat="44.48626" lon="1.53747">
        <ele>271.23</ele>
        <time>2023-02-20T15:32:08Z</time>
      </trkpt>
      <trkpt lat="44.4863" lon="1.53762">
        <ele>271.23</ele>
        <time>2023-02-20T15:32:19Z</time>
      </trkpt>
      <trkpt lat="44.48632" lon="1.53777">
        <ele>271.23</ele>
        <time>2023-02-20T15:32:32Z</time>
      </trkpt>
      <trkpt lat="44.48634" lon="1.53793">
        <ele>271.23</ele>
        <time>2023-02-20T15:32:42Z</time>
      </trkpt>
      <trkpt lat="44.48638" lon="1.53809">
        <ele>270.75</ele>
        <time>2023-02-20T15:32:53Z</time>
      </trkpt>
      <trkpt lat="44.48642" lon="1.53823">
        <ele>270.75</ele>
        <time>2023-02-20T15:33:05Z</time>
      </trkpt>
      <trkpt lat="44.48648" lon="1.53837">
        <ele>270.27</ele>
        <time>2023-02-20T15:33:17Z</time>
      </trkpt>
      <trkpt lat="44.48652" lon="1.5385">
        <ele>270.27</ele>
        <time>2023-02-20T15:33:26Z</time>
      </trkpt>
      <trkpt lat="44.48658" lon="1.53862">
        <ele>270.27</ele>
        <time>2023-02-20T15:33:35Z</time>
      </trkpt>
      <trkpt lat="44.48666" lon="1.53873">
        <ele>270.27</ele>
        <time>2023-02-20T15:33:44Z</time>
      </trkpt>
      <trkpt lat="44.48674" lon="1.53884">
        <ele>270.27</ele>
        <time>2023-02-20T15:33:54Z</time>
      </trkpt>
      <trkpt lat="44.48682" lon="1.53895">
        <ele>270.27</ele>
        <time>2023-02-20T15:34:04Z</time>
      </trkpt>
      <trkpt lat="44.4869" lon="1.53905">
        <ele>270.27</ele>
        <time>2023-02-20T15:34:14Z</time>
      </trkpt>
      <trkpt lat="44.48697" lon="1.53918">
        <ele>270.27</ele>
        <time>2023-02-20T15:34:24Z</time>
      </trkpt>
      <trkpt lat="44.48701" lon="1.53931">
        <ele>269.79</ele>
        <time>2023-02-20T15:34:34Z</time>
      </trkpt>
      <trkpt lat="44.48701" lon="1.53945">
        <ele>269.79</ele>
        <time>2023-02-20T15:34:50Z</time>
      </trkpt>
      <trkpt lat="44.48709" lon="1.53941">
        <ele>269.31</ele>
        <time>2023-02-20T15:36:21Z</time>
      </trkpt>
      <trkpt lat="44.48713" lon="1.53945">
        <ele>269.31</ele>
        <time>2023-02-20T15:37:48Z</time>
      </trkpt>
      <trkpt lat="44.48722" lon="1.5394">
        <ele>270.75</ele>
        <time>2023-02-20T15:38:00Z</time>
      </trkpt>
      <trkpt lat="44.48731" lon="1.53933">
        <ele>270.75</ele>
        <time>2023-02-20T15:38:09Z</time>
      </trkpt>
      <trkpt lat="44.48741" lon="1.53929">
        <ele>271.23</ele>
        <time>2023-02-20T15:38:21Z</time>
      </trkpt>
      <trkpt lat="44.48751" lon="1.53926">
        <ele>271.23</ele>
        <time>2023-02-20T15:38:31Z</time>
      </trkpt>
      <trkpt lat="44.48763" lon="1.53922">
        <ele>271.23</ele>
        <time>2023-02-20T15:38:42Z</time>
      </trkpt>
      <trkpt lat="44.48774" lon="1.53918">
        <ele>271.71</ele>
        <time>2023-02-20T15:38:51Z</time>
      </trkpt>
      <trkpt lat="44.48784" lon="1.53916">
        <ele>271.71</ele>
        <time>2023-02-20T15:39:00Z</time>
      </trkpt>
      <trkpt lat="44.48794" lon="1.53913">
        <ele>271.71</ele>
        <time>2023-02-20T15:39:10Z</time>
      </trkpt>
      <trkpt lat="44.48804" lon="1.53912">
        <ele>271.71</ele>
        <time>2023-02-20T15:39:21Z</time>
      </trkpt>
      <trkpt lat="44.48815" lon="1.53913">
        <ele>272.19</ele>
        <time>2023-02-20T15:39:33Z</time>
      </trkpt>
      <trkpt lat="44.48827" lon="1.53914">
        <ele>272.67</ele>
        <time>2023-02-20T15:39:44Z</time>
      </trkpt>
      <trkpt lat="44.48839" lon="1.53917">
        <ele>272.67</ele>
        <time>2023-02-20T15:39:55Z</time>
      </trkpt>
      <trkpt lat="44.48851" lon="1.5392">
        <ele>273.15</ele>
        <time>2023-02-20T15:40:05Z</time>
      </trkpt>
      <trkpt lat="44.48861" lon="1.5392">
        <ele>273.63</ele>
        <time>2023-02-20T15:40:15Z</time>
      </trkpt>
      <trkpt lat="44.48873" lon="1.53918">
        <ele>273.63</ele>
        <time>2023-02-20T15:40:25Z</time>
      </trkpt>
      <trkpt lat="44.48884" lon="1.53914">
        <ele>273.63</ele>
        <time>2023-02-20T15:40:35Z</time>
      </trkpt>
      <trkpt lat="44.48893" lon="1.5391">
        <ele>274.11</ele>
        <time>2023-02-20T15:40:44Z</time>
      </trkpt>
      <trkpt lat="44.48903" lon="1.53906">
        <ele>274.11</ele>
        <time>2023-02-20T15:40:53Z</time>
      </trkpt>
      <trkpt lat="44.48913" lon="1.53908">
        <ele>274.11</ele>
        <time>2023-02-20T15:41:04Z</time>
      </trkpt>
      <trkpt lat="44.48923" lon="1.53905">
        <ele>274.11</ele>
        <time>2023-02-20T15:41:13Z</time>
      </trkpt>
      <trkpt lat="44.48933" lon="1.53901">
        <ele>274.11</ele>
        <time>2023-02-20T15:41:22Z</time>
      </trkpt>
      <trkpt lat="44.48941" lon="1.53895">
        <ele>274.11</ele>
        <time>2023-02-20T15:41:31Z</time>
      </trkpt>
      <trkpt lat="44.48951" lon="1.53889">
        <ele>274.11</ele>
        <time>2023-02-20T15:41:40Z</time>
      </trkpt>
      <trkpt lat="44.48959" lon="1.53882">
        <ele>274.11</ele>
        <time>2023-02-20T15:41:49Z</time>
      </trkpt>
      <trkpt lat="44.48967" lon="1.53873">
        <ele>274.11</ele>
        <time>2023-02-20T15:41:58Z</time>
      </trkpt>
      <trkpt lat="44.48976" lon="1.53866">
        <ele>274.11</ele>
        <time>2023-02-20T15:42:08Z</time>
      </trkpt>
      <trkpt lat="44.48984" lon="1.53857">
        <ele>274.11</ele>
        <time>2023-02-20T15:42:17Z</time>
      </trkpt>
      <trkpt lat="44.48992" lon="1.53848">
        <ele>274.11</ele>
        <time>2023-02-20T15:42:26Z</time>
      </trkpt>
      <trkpt lat="44.49" lon="1.53838">
        <ele>274.11</ele>
        <time>2023-02-20T15:42:36Z</time>
      </trkpt>
      <trkpt lat="44.49008" lon="1.53829">
        <ele>274.11</ele>
        <time>2023-02-20T15:42:46Z</time>
      </trkpt>
      <trkpt lat="44.49016" lon="1.5382">
        <ele>274.11</ele>
        <time>2023-02-20T15:42:55Z</time>
      </trkpt>
      <trkpt lat="44.49025" lon="1.53812">
        <ele>274.11</ele>
        <time>2023-02-20T15:43:05Z</time>
      </trkpt>
      <trkpt lat="44.49031" lon="1.53816">
        <ele>274.11</ele>
        <time>2023-02-20T15:44:05Z</time>
      </trkpt>
      <trkpt lat="44.49028" lon="1.53823">
        <ele>274.11</ele>
        <time>2023-02-20T15:45:47Z</time>
      </trkpt>
      <trkpt lat="44.49029" lon="1.53836">
        <ele>272.67</ele>
        <time>2023-02-20T15:45:56Z</time>
      </trkpt>
      <trkpt lat="44.4903" lon="1.5385">
        <ele>271.23</ele>
        <time>2023-02-20T15:46:06Z</time>
      </trkpt>
      <trkpt lat="44.49031" lon="1.53865">
        <ele>269.79</ele>
        <time>2023-02-20T15:46:15Z</time>
      </trkpt>
      <trkpt lat="44.49032" lon="1.53882">
        <ele>268.35</ele>
        <time>2023-02-20T15:46:27Z</time>
      </trkpt>
      <trkpt lat="44.49032" lon="1.53897">
        <ele>266.42</ele>
        <time>2023-02-20T15:46:38Z</time>
      </trkpt>
      <trkpt lat="44.4903" lon="1.53915">
        <ele>264.5</ele>
        <time>2023-02-20T15:46:51Z</time>
      </trkpt>
      <trkpt lat="44.49027" lon="1.53932">
        <ele>263.06</ele>
        <time>2023-02-20T15:47:02Z</time>
      </trkpt>
      <trkpt lat="44.49024" lon="1.5395">
        <ele>262.58</ele>
        <time>2023-02-20T15:47:14Z</time>
      </trkpt>
      <trkpt lat="44.49021" lon="1.53969">
        <ele>261.14</ele>
        <time>2023-02-20T15:47:28Z</time>
      </trkpt>
      <trkpt lat="44.4902" lon="1.53988">
        <ele>260.17</ele>
        <time>2023-02-20T15:47:39Z</time>
      </trkpt>
      <trkpt lat="44.49021" lon="1.54007">
        <ele>258.25</ele>
        <time>2023-02-20T15:47:50Z</time>
      </trkpt>
      <trkpt lat="44.49022" lon="1.54023">
        <ele>257.77</ele>
        <time>2023-02-20T15:48:00Z</time>
      </trkpt>
      <trkpt lat="44.49025" lon="1.54039">
        <ele>256.33</ele>
        <time>2023-02-20T15:48:11Z</time>
      </trkpt>
      <trkpt lat="44.49029" lon="1.54055">
        <ele>255.85</ele>
        <time>2023-02-20T15:48:21Z</time>
      </trkpt>
      <trkpt lat="44.49032" lon="1.5407">
        <ele>255.37</ele>
        <time>2023-02-20T15:48:30Z</time>
      </trkpt>
      <trkpt lat="44.49036" lon="1.54087">
        <ele>255.37</ele>
        <time>2023-02-20T15:48:40Z</time>
      </trkpt>
      <trkpt lat="44.49036" lon="1.54104">
        <ele>254.89</ele>
        <time>2023-02-20T15:48:50Z</time>
      </trkpt>
      <trkpt lat="44.49032" lon="1.54118">
        <ele>254.89</ele>
        <time>2023-02-20T15:48:59Z</time>
      </trkpt>
      <trkpt lat="44.49026" lon="1.5413">
        <ele>253.93</ele>
        <time>2023-02-20T15:49:09Z</time>
      </trkpt>
      <trkpt lat="44.49021" lon="1.54146">
        <ele>252.48</ele>
        <time>2023-02-20T15:49:20Z</time>
      </trkpt>
      <trkpt lat="44.49019" lon="1.54161">
        <ele>251.04</ele>
        <time>2023-02-20T15:49:30Z</time>
      </trkpt>
      <trkpt lat="44.49016" lon="1.54176">
        <ele>249.12</ele>
        <time>2023-02-20T15:49:41Z</time>
      </trkpt>
      <trkpt lat="44.49013" lon="1.54191">
        <ele>247.68</ele>
        <time>2023-02-20T15:49:52Z</time>
      </trkpt>
      <trkpt lat="44.49015" lon="1.54209">
        <ele>246.72</ele>
        <time>2023-02-20T15:50:02Z</time>
      </trkpt>
      <trkpt lat="44.49018" lon="1.54225">
        <ele>245.75</ele>
        <time>2023-02-20T15:50:12Z</time>
      </trkpt>
      <trkpt lat="44.49021" lon="1.5424">
        <ele>245.27</ele>
        <time>2023-02-20T15:50:21Z</time>
      </trkpt>
      <trkpt lat="44.49023" lon="1.54254">
        <ele>245.27</ele>
        <time>2023-02-20T15:50:30Z</time>
      </trkpt>
      <trkpt lat="44.49024" lon="1.5427">
        <ele>245.27</ele>
        <time>2023-02-20T15:50:40Z</time>
      </trkpt>
      <trkpt lat="44.49022" lon="1.54286">
        <ele>245.27</ele>
        <time>2023-02-20T15:50:51Z</time>
      </trkpt>
      <trkpt lat="44.49019" lon="1.54303">
        <ele>245.27</ele>
        <time>2023-02-20T15:51:02Z</time>
      </trkpt>
      <trkpt lat="44.49013" lon="1.54319">
        <ele>244.79</ele>
        <time>2023-02-20T15:51:13Z</time>
      </trkpt>
      <trkpt lat="44.49005" lon="1.54333">
        <ele>244.31</ele>
        <time>2023-02-20T15:51:22Z</time>
      </trkpt>
      <trkpt lat="44.49" lon="1.54346">
        <ele>242.87</ele>
        <time>2023-02-20T15:51:31Z</time>
      </trkpt>
      <trkpt lat="44.48995" lon="1.54361">
        <ele>241.91</ele>
        <time>2023-02-20T15:51:41Z</time>
      </trkpt>
      <trkpt lat="44.48992" lon="1.54376">
        <ele>240.95</ele>
        <time>2023-02-20T15:51:51Z</time>
      </trkpt>
      <trkpt lat="44.48994" lon="1.5439">
        <ele>239.51</ele>
        <time>2023-02-20T15:52:01Z</time>
      </trkpt>
      <trkpt lat="44.49001" lon="1.54402">
        <ele>239.02</ele>
        <time>2023-02-20T15:52:11Z</time>
      </trkpt>
      <trkpt lat="44.49009" lon="1.54413">
        <ele>238.54</ele>
        <time>2023-02-20T15:52:21Z</time>
      </trkpt>
      <trkpt lat="44.49012" lon="1.54428">
        <ele>237.58</ele>
        <time>2023-02-20T15:52:31Z</time>
      </trkpt>
      <trkpt lat="44.4901" lon="1.54444">
        <ele>237.58</ele>
        <time>2023-02-20T15:52:41Z</time>
      </trkpt>
      <trkpt lat="44.49005" lon="1.54457">
        <ele>239.02</ele>
        <time>2023-02-20T15:52:51Z</time>
      </trkpt>
      <trkpt lat="44.48996" lon="1.54468">
        <ele>239.51</ele>
        <time>2023-02-20T15:53:02Z</time>
      </trkpt>
      <trkpt lat="44.48986" lon="1.5448">
        <ele>240.47</ele>
        <time>2023-02-20T15:53:12Z</time>
      </trkpt>
      <trkpt lat="44.48978" lon="1.54493">
        <ele>240.95</ele>
        <time>2023-02-20T15:53:23Z</time>
      </trkpt>
      <trkpt lat="44.48973" lon="1.54507">
        <ele>241.91</ele>
        <time>2023-02-20T15:53:33Z</time>
      </trkpt>
      <trkpt lat="44.48967" lon="1.54522">
        <ele>241.91</ele>
        <time>2023-02-20T15:53:44Z</time>
      </trkpt>
      <trkpt lat="44.48961" lon="1.54539">
        <ele>242.39</ele>
        <time>2023-02-20T15:53:57Z</time>
      </trkpt>
      <trkpt lat="44.48956" lon="1.54554">
        <ele>242.87</ele>
        <time>2023-02-20T15:54:07Z</time>
      </trkpt>
      <trkpt lat="44.48951" lon="1.54567">
        <ele>242.87</ele>
        <time>2023-02-20T15:54:16Z</time>
      </trkpt>
      <trkpt lat="44.48947" lon="1.54583">
        <ele>243.35</ele>
        <time>2023-02-20T15:54:27Z</time>
      </trkpt>
      <trkpt lat="44.48944" lon="1.54601">
        <ele>243.35</ele>
        <time>2023-02-20T15:54:37Z</time>
      </trkpt>
      <trkpt lat="44.48942" lon="1.54617">
        <ele>243.35</ele>
        <time>2023-02-20T15:54:47Z</time>
      </trkpt>
      <trkpt lat="44.48941" lon="1.54634">
        <ele>243.35</ele>
        <time>2023-02-20T15:54:58Z</time>
      </trkpt>
      <trkpt lat="44.48941" lon="1.54651">
        <ele>243.35</ele>
        <time>2023-02-20T15:55:10Z</time>
      </trkpt>
      <trkpt lat="44.48939" lon="1.54669">
        <ele>243.35</ele>
        <time>2023-02-20T15:55:23Z</time>
      </trkpt>
      <trkpt lat="44.48936" lon="1.54689">
        <ele>243.35</ele>
        <time>2023-02-20T15:55:36Z</time>
      </trkpt>
      <trkpt lat="44.48933" lon="1.54706">
        <ele>243.35</ele>
        <time>2023-02-20T15:55:47Z</time>
      </trkpt>
      <trkpt lat="44.48929" lon="1.54726">
        <ele>243.35</ele>
        <time>2023-02-20T15:55:58Z</time>
      </trkpt>
      <trkpt lat="44.48925" lon="1.54742">
        <ele>243.35</ele>
        <time>2023-02-20T15:56:09Z</time>
      </trkpt>
      <trkpt lat="44.4892" lon="1.54758">
        <ele>243.35</ele>
        <time>2023-02-20T15:56:19Z</time>
      </trkpt>
      <trkpt lat="44.48915" lon="1.54773">
        <ele>243.35</ele>
        <time>2023-02-20T15:56:30Z</time>
      </trkpt>
      <trkpt lat="44.48911" lon="1.54788">
        <ele>243.83</ele>
        <time>2023-02-20T15:56:40Z</time>
      </trkpt>
      <trkpt lat="44.48906" lon="1.54806">
        <ele>243.83</ele>
        <time>2023-02-20T15:56:52Z</time>
      </trkpt>
      <trkpt lat="44.48902" lon="1.54823">
        <ele>244.31</ele>
        <time>2023-02-20T15:57:03Z</time>
      </trkpt>
      <trkpt lat="44.48897" lon="1.54835">
        <ele>244.31</ele>
        <time>2023-02-20T15:57:13Z</time>
      </trkpt>
      <trkpt lat="44.48893" lon="1.54848">
        <ele>244.31</ele>
        <time>2023-02-20T15:57:22Z</time>
      </trkpt>
      <trkpt lat="44.48889" lon="1.54863">
        <ele>244.31</ele>
        <time>2023-02-20T15:57:31Z</time>
      </trkpt>
      <trkpt lat="44.48884" lon="1.54877">
        <ele>244.31</ele>
        <time>2023-02-20T15:57:43Z</time>
      </trkpt>
      <trkpt lat="44.48873" lon="1.5489">
        <ele>242.87</ele>
        <time>2023-02-20T15:58:16Z</time>
      </trkpt>
      <trkpt lat="44.48867" lon="1.54902">
        <ele>242.39</ele>
        <time>2023-02-20T15:58:31Z</time>
      </trkpt>
      <trkpt lat="44.48861" lon="1.54911">
        <ele>241.43</ele>
        <time>2023-02-20T15:58:46Z</time>
      </trkpt>
      <trkpt lat="44.48853" lon="1.54919">
        <ele>240.47</ele>
        <time>2023-02-20T15:58:56Z</time>
      </trkpt>
      <trkpt lat="44.48845" lon="1.5493">
        <ele>239.51</ele>
        <time>2023-02-20T15:59:07Z</time>
      </trkpt>
      <trkpt lat="44.48838" lon="1.54942">
        <ele>238.54</ele>
        <time>2023-02-20T15:59:17Z</time>
      </trkpt>
      <trkpt lat="44.4883" lon="1.54954">
        <ele>237.1</ele>
        <time>2023-02-20T15:59:29Z</time>
      </trkpt>
      <trkpt lat="44.48822" lon="1.54962">
        <ele>235.66</ele>
        <time>2023-02-20T15:59:39Z</time>
      </trkpt>
      <trkpt lat="44.48813" lon="1.54971">
        <ele>234.22</ele>
        <time>2023-02-20T15:59:49Z</time>
      </trkpt>
      <trkpt lat="44.48803" lon="1.5498">
        <ele>232.78</ele>
        <time>2023-02-20T16:00:00Z</time>
      </trkpt>
      <trkpt lat="44.48794" lon="1.54989">
        <ele>230.85</ele>
        <time>2023-02-20T16:00:10Z</time>
      </trkpt>
      <trkpt lat="44.48784" lon="1.54999">
        <ele>229.41</ele>
        <time>2023-02-20T16:00:21Z</time>
      </trkpt>
      <trkpt lat="44.48772" lon="1.55009">
        <ele>227.97</ele>
        <time>2023-02-20T16:00:53Z</time>
      </trkpt>
      <trkpt lat="44.48762" lon="1.55018">
        <ele>226.05</ele>
        <time>2023-02-20T16:01:05Z</time>
      </trkpt>
      <trkpt lat="44.48751" lon="1.55022">
        <ele>224.12</ele>
        <time>2023-02-20T16:01:15Z</time>
      </trkpt>
      <trkpt lat="44.4874" lon="1.55027">
        <ele>222.2</ele>
        <time>2023-02-20T16:01:26Z</time>
      </trkpt>
      <trkpt lat="44.48731" lon="1.55034">
        <ele>221.24</ele>
        <time>2023-02-20T16:01:37Z</time>
      </trkpt>
      <trkpt lat="44.4872" lon="1.5504">
        <ele>219.32</ele>
        <time>2023-02-20T16:01:48Z</time>
      </trkpt>
      <trkpt lat="44.48709" lon="1.55045">
        <ele>216.91</ele>
        <time>2023-02-20T16:02:00Z</time>
      </trkpt>
      <trkpt lat="44.48699" lon="1.55052">
        <ele>215.47</ele>
        <time>2023-02-20T16:02:11Z</time>
      </trkpt>
      <trkpt lat="44.48687" lon="1.55057">
        <ele>213.55</ele>
        <time>2023-02-20T16:02:22Z</time>
      </trkpt>
      <trkpt lat="44.48676" lon="1.55059">
        <ele>211.63</ele>
        <time>2023-02-20T16:02:33Z</time>
      </trkpt>
      <trkpt lat="44.48665" lon="1.5506">
        <ele>209.7</ele>
        <time>2023-02-20T16:02:44Z</time>
      </trkpt>
      <trkpt lat="44.48656" lon="1.55067">
        <ele>207.3</ele>
        <time>2023-02-20T16:02:57Z</time>
      </trkpt>
      <trkpt lat="44.48645" lon="1.55072">
        <ele>203.46</ele>
        <time>2023-02-20T16:03:12Z</time>
      </trkpt>
      <trkpt lat="44.48634" lon="1.55079">
        <ele>201.05</ele>
        <time>2023-02-20T16:03:25Z</time>
      </trkpt>
      <trkpt lat="44.48618" lon="1.55076">
        <ele>198.17</ele>
        <time>2023-02-20T16:03:44Z</time>
      </trkpt>
      <trkpt lat="44.48605" lon="1.55073">
        <ele>195.28</ele>
        <time>2023-02-20T16:04:02Z</time>
      </trkpt>
      <trkpt lat="44.48595" lon="1.55068">
        <ele>192.4</ele>
        <time>2023-02-20T16:04:20Z</time>
      </trkpt>
      <trkpt lat="44.48585" lon="1.55062">
        <ele>190.96</ele>
        <time>2023-02-20T16:04:32Z</time>
      </trkpt>
      <trkpt lat="44.48575" lon="1.55058">
        <ele>189.04</ele>
        <time>2023-02-20T16:04:44Z</time>
      </trkpt>
      <trkpt lat="44.48561" lon="1.55055">
        <ele>187.59</ele>
        <time>2023-02-20T16:04:59Z</time>
      </trkpt>
      <trkpt lat="44.48549" lon="1.55052">
        <ele>185.19</ele>
        <time>2023-02-20T16:05:14Z</time>
      </trkpt>
      <trkpt lat="44.48538" lon="1.55053">
        <ele>183.27</ele>
        <time>2023-02-20T16:05:28Z</time>
      </trkpt>
      <trkpt lat="44.48552" lon="1.55073">
        <ele>181.83</ele>
        <time>2023-02-20T16:07:39Z</time>
      </trkpt>
      <trkpt lat="44.48539" lon="1.55068">
        <ele>179.42</ele>
        <time>2023-02-20T16:08:06Z</time>
      </trkpt>
      <trkpt lat="44.4853" lon="1.55067">
        <ele>177.98</ele>
        <time>2023-02-20T16:08:18Z</time>
      </trkpt>
      <trkpt lat="44.48531" lon="1.55075">
        <ele>175.1</ele>
        <time>2023-02-20T16:08:41Z</time>
      </trkpt>
      <trkpt lat="44.48549" lon="1.55092">
        <ele>171.25</ele>
        <time>2023-02-20T16:09:06Z</time>
      </trkpt>
      <trkpt lat="44.48562" lon="1.55108">
        <ele>167.89</ele>
        <time>2023-02-20T16:09:26Z</time>
      </trkpt>
      <trkpt lat="44.48577" lon="1.55127">
        <ele>165</ele>
        <time>2023-02-20T16:09:49Z</time>
      </trkpt>
      <trkpt lat="44.48586" lon="1.5514">
        <ele>162.12</ele>
        <time>2023-02-20T16:10:06Z</time>
      </trkpt>
      <trkpt lat="44.48574" lon="1.55141">
        <ele>159.72</ele>
        <time>2023-02-20T16:10:22Z</time>
      </trkpt>
      <trkpt lat="44.4856" lon="1.55138">
        <ele>156.35</ele>
        <time>2023-02-20T16:10:38Z</time>
      </trkpt>
      <trkpt lat="44.48543" lon="1.55138">
        <ele>152.51</ele>
        <time>2023-02-20T16:10:56Z</time>
      </trkpt>
      <trkpt lat="44.48529" lon="1.55138">
        <ele>149.14</ele>
        <time>2023-02-20T16:11:11Z</time>
      </trkpt>
      <trkpt lat="44.48516" lon="1.55141">
        <ele>146.74</ele>
        <time>2023-02-20T16:11:21Z</time>
      </trkpt>
      <trkpt lat="44.48506" lon="1.55141">
        <ele>144.82</ele>
        <time>2023-02-20T16:11:32Z</time>
      </trkpt>
      <trkpt lat="44.48494" lon="1.55139">
        <ele>141.45</ele>
        <time>2023-02-20T16:11:45Z</time>
      </trkpt>
      <trkpt lat="44.48482" lon="1.55137">
        <ele>139.05</ele>
        <time>2023-02-20T16:11:58Z</time>
      </trkpt>
      <trkpt lat="44.48476" lon="1.55144">
        <ele>137.61</ele>
        <time>2023-02-20T16:12:10Z</time>
      </trkpt>
      <trkpt lat="44.48501" lon="1.55154">
        <ele>135.2</ele>
        <time>2023-02-20T16:13:33Z</time>
      </trkpt>
      <trkpt lat="44.48523" lon="1.55167">
        <ele>133.28</ele>
        <time>2023-02-20T16:14:02Z</time>
      </trkpt>
      <trkpt lat="44.4853" lon="1.55181">
        <ele>132.32</ele>
        <time>2023-02-20T16:14:14Z</time>
      </trkpt>
      <trkpt lat="44.48535" lon="1.55195">
        <ele>131.84</ele>
        <time>2023-02-20T16:14:25Z</time>
      </trkpt>
      <trkpt lat="44.48536" lon="1.55214">
        <ele>131.84</ele>
        <time>2023-02-20T16:14:34Z</time>
      </trkpt>
      <trkpt lat="44.48536" lon="1.55227">
        <ele>131.84</ele>
        <time>2023-02-20T16:14:43Z</time>
      </trkpt>
      <trkpt lat="44.48525" lon="1.55237">
        <ele>130.4</ele>
        <time>2023-02-20T16:14:54Z</time>
      </trkpt>
      <trkpt lat="44.48515" lon="1.55247">
        <ele>129.43</ele>
        <time>2023-02-20T16:15:04Z</time>
      </trkpt>
      <trkpt lat="44.48505" lon="1.55254">
        <ele>128.95</ele>
        <time>2023-02-20T16:15:14Z</time>
      </trkpt>
      <trkpt lat="44.48494" lon="1.55258">
        <ele>127.51</ele>
        <time>2023-02-20T16:15:27Z</time>
      </trkpt>
      <trkpt lat="44.48481" lon="1.55255">
        <ele>127.03</ele>
        <time>2023-02-20T16:15:40Z</time>
      </trkpt>
      <trkpt lat="44.48473" lon="1.55258">
        <ele>125.11</ele>
        <time>2023-02-20T16:15:53Z</time>
      </trkpt>
      <trkpt lat="44.48468" lon="1.5527">
        <ele>124.15</ele>
        <time>2023-02-20T16:16:02Z</time>
      </trkpt>
      <trkpt lat="44.48461" lon="1.55283">
        <ele>123.67</ele>
        <time>2023-02-20T16:16:11Z</time>
      </trkpt>
      <trkpt lat="44.48453" lon="1.55295">
        <ele>122.71</ele>
        <time>2023-02-20T16:16:21Z</time>
      </trkpt>
      <trkpt lat="44.48448" lon="1.55307">
        <ele>121.26</ele>
        <time>2023-02-20T16:16:29Z</time>
      </trkpt>
      <trkpt lat="44.4845" lon="1.55322">
        <ele>122.22</ele>
        <time>2023-02-20T16:16:40Z</time>
      </trkpt>
      <trkpt lat="44.48456" lon="1.55333">
        <ele>120.78</ele>
        <time>2023-02-20T16:16:54Z</time>
      </trkpt>
      <trkpt lat="44.48466" lon="1.55339">
        <ele>120.78</ele>
        <time>2023-02-20T16:17:28Z</time>
      </trkpt>
      <trkpt lat="44.48478" lon="1.55345">
        <ele>120.78</ele>
        <time>2023-02-20T16:17:40Z</time>
      </trkpt>
      <trkpt lat="44.48495" lon="1.55357">
        <ele>120.78</ele>
        <time>2023-02-20T16:18:00Z</time>
      </trkpt>
      <trkpt lat="44.48502" lon="1.55373">
        <ele>120.78</ele>
        <time>2023-02-20T16:18:11Z</time>
      </trkpt>
      <trkpt lat="44.48512" lon="1.55396">
        <ele>121.74</ele>
        <time>2023-02-20T16:18:28Z</time>
      </trkpt>
      <trkpt lat="44.48523" lon="1.55403">
        <ele>122.22</ele>
        <time>2023-02-20T16:18:42Z</time>
      </trkpt>
      <trkpt lat="44.48532" lon="1.5541">
        <ele>122.71</ele>
        <time>2023-02-20T16:18:51Z</time>
      </trkpt>
      <trkpt lat="44.48535" lon="1.55424">
        <ele>122.71</ele>
        <time>2023-02-20T16:19:00Z</time>
      </trkpt>
      <trkpt lat="44.4854" lon="1.55436">
        <ele>122.71</ele>
        <time>2023-02-20T16:19:10Z</time>
      </trkpt>
      <trkpt lat="44.48543" lon="1.55449">
        <ele>123.19</ele>
        <time>2023-02-20T16:19:20Z</time>
      </trkpt>
      <trkpt lat="44.48548" lon="1.55463">
        <ele>125.59</ele>
        <time>2023-02-20T16:19:30Z</time>
      </trkpt>
      <trkpt lat="44.48548" lon="1.55479">
        <ele>127.51</ele>
        <time>2023-02-20T16:19:41Z</time>
      </trkpt>
      <trkpt lat="44.48548" lon="1.55494">
        <ele>127.99</ele>
        <time>2023-02-20T16:19:50Z</time>
      </trkpt>
      <trkpt lat="44.48551" lon="1.55509">
        <ele>127.99</ele>
        <time>2023-02-20T16:20:00Z</time>
      </trkpt>
      <trkpt lat="44.48559" lon="1.55521">
        <ele>128.47</ele>
        <time>2023-02-20T16:20:21Z</time>
      </trkpt>
    </trkseg>
  </trk>
</gpx>